M I D A S
Marine Information and Data Acquisition System
Tripno 1531 of the Zeeleeuw from 2008-08-04 08:20:09 to 2008-08-04 14:43:14
Back to CruiseResearch ActivitiesStationsMapUnderway DataData graphs

EquipmentUnitsComment
TimeDGPSUTC
LatitudeDGPSDM.mWGS84
LongitudeDGPSDM.mWGS84
TemperatureSBE03/SBE38deg celciusITS90
ConductivitySBE21S/mITS90
SalinitySBE21 Practical Salinity Units
ChlorophylAChelsea fluorimeterg/lCalibrated in Aceton
Missing or incorrect values are displayed as -999
Sea surface data collected by the RV Zeeleeuw from 2008-08-04 08:22:21 to 2008-08-04 14:46:13
                                                                                    Next 1000 lines
Time Latitude Longitude Temperature Conductivity Salinity ChlorophylA
2008-08-04 08:22:31 51°13.624 2°56.045 21.5792 2.263164 15.253149 -1.453281
2008-08-04 08:22:36 51°13.624 2°56.044 21.5595 2.263061 15.252388 -1.453281
2008-08-04 08:22:41 51°13.625 2°56.041 21.5603 2.263164 15.253149 -1.453281
2008-08-04 08:22:46 51°13.626 2°56.038 21.563 2.263061 15.252666 -1.453281
2008-08-04 08:22:51 51°13.627 2°56.035 21.5694 2.263061 15.252666 -1.453281
2008-08-04 08:22:56 51°13.629 2°56.03 21.5652 2.263061 15.252388 -1.453281
2008-08-04 08:23:01 51°13.631 2°56.025 21.5764 2.263164 15.253149 -1.453281
2008-08-04 08:23:06 51°13.632 2°56.019 21.576 2.263164 15.253427 -1.453281
2008-08-04 08:23:11 51°13.634 2°56.013 21.5757 2.263164 15.253427 -1.453281
2008-08-04 08:23:16 51°13.636 2°56.006 21.5766 2.263061 15.252666 -1.453281
2008-08-04 08:23:21 51°13.638 2°55.999 21.5624 2.263061 15.252666 -1.453281
2008-08-04 08:23:26 51°13.64 2°55.992 21.5713 2.263061 15.252388 -1.453281
2008-08-04 08:23:31 51°13.643 2°55.984 21.5775 2.263061 15.252666 -1.488105
2008-08-04 08:23:36 51°13.645 2°55.976 21.5771 2.263061 15.252666 -1.453281
2008-08-04 08:23:41 51°13.648 2°55.968 21.5829 2.263164 15.253705 -1.488105
2008-08-04 08:23:46 51°13.65 2°55.959 21.5818 2.263164 15.253705 -1.453281
2008-08-04 08:23:51 51°13.652 2°55.951 21.5851 2.263164 15.253705 -1.453281
2008-08-04 08:23:56 51°13.655 2°55.942 21.5851 2.263164 15.253983 -1.453281
2008-08-04 08:24:01 51°13.657 2°55.933 21.5869 2.263164 15.253983 -1.453281
2008-08-04 08:24:06 51°13.659 2°55.925 21.59 2.263164 15.253983 -1.453281
2008-08-04 08:24:11 51°13.662 2°55.916 21.5894 2.263164 15.253983 -1.453281
2008-08-04 08:24:16 51°13.664 2°55.908 21.5901 2.263164 15.253983 -1.453281
2008-08-04 08:24:21 51°13.666 2°55.899 21.5906 2.263164 15.253983 -1.453281
2008-08-04 08:24:26 51°13.668 2°55.891 21.5927 2.263164 15.25426 -1.453281
2008-08-04 08:24:31 51°13.67 2°55.883 21.5925 2.263164 15.25426 -1.453281
2008-08-04 08:24:36 51°13.672 2°55.875 21.5924 2.263164 15.25426 -1.453281
2008-08-04 08:24:41 51°13.674 2°55.867 21.5917 2.263164 15.25426 -1.453281
2008-08-04 08:24:46 51°13.676 2°55.86 21.5925 2.263164 15.25426 -1.453281
2008-08-04 08:24:51 51°13.678 2°55.852 21.5931 2.263164 15.25426 -1.453281
2008-08-04 08:24:56 51°13.68 2°55.845 21.5938 2.263164 15.25426 -1.453281
2008-08-04 08:25:01 51°13.681 2°55.839 21.5937 2.263164 15.25426 -1.488105
2008-08-04 08:25:06 51°13.682 2°55.832 21.5936 2.263164 15.25426 -1.453281
2008-08-04 08:25:11 51°13.684 2°55.826 21.5925 2.263164 15.25426 -1.453281
2008-08-04 08:25:16 51°13.685 2°55.82 21.593 2.263164 15.25426 -1.453281
2008-08-04 08:25:21 51°13.686 2°55.814 21.5946 2.263164 15.25426 -1.453281
2008-08-04 08:25:26 51°13.687 2°55.808 21.5949 2.263164 15.25426 -1.453281
2008-08-04 08:25:31 51°13.687 2°55.802 21.5941 2.263164 15.25426 -1.453281
2008-08-04 08:25:36 51°13.688 2°55.797 21.594 2.263164 15.254538 -1.453281
2008-08-04 08:25:41 51°13.689 2°55.792 21.5965 2.263164 15.254538 -1.453281
2008-08-04 08:25:46 51°13.689 2°55.788 21.5973 2.263164 15.254538 -1.453281
2008-08-04 08:25:51 51°13.689 2°55.783 21.5962 2.263164 15.254538 -1.453281
2008-08-04 08:25:56 51°13.69 2°55.78 21.5951 2.263164 15.254538 -1.453281
2008-08-04 08:26:01 51°13.69 2°55.776 21.595 2.263164 15.254538 -1.453281
2008-08-04 08:26:06 51°13.69 2°55.773 21.5946 2.263164 15.254538 -1.453281
2008-08-04 08:26:11 51°13.69 2°55.77 21.5949 2.263164 15.254538 -1.453281
2008-08-04 08:26:16 51°13.69 2°55.767 21.5958 2.263164 15.254816 -1.453281
2008-08-04 08:26:21 51°13.691 2°55.764 21.5968 2.263164 15.254816 -1.453281
2008-08-04 08:26:26 51°13.691 2°55.762 21.5968 2.263164 15.254816 -1.453281
2008-08-04 08:26:31 51°13.691 2°55.761 21.5991 2.263164 15.254816 -1.453281
2008-08-04 08:26:36 51°13.691 2°55.76 21.6018 2.263164 15.255094 -1.453281
2008-08-04 08:26:41 51°13.692 2°55.759 21.6025 2.263267 15.255855 -1.453281
2008-08-04 08:26:46 51°13.692 2°55.758 21.602 2.263267 15.256133 -1.453281
2008-08-04 08:26:51 51°13.693 2°55.759 21.6024 2.263267 15.256133 -1.453281
2008-08-04 08:26:56 51°13.694 2°55.759 21.6024 2.263267 15.256133 -1.453281
2008-08-04 08:27:01 51°13.694 2°55.761 21.6021 2.263267 15.256133 -1.453281
2008-08-04 08:27:06 51°13.695 2°55.762 21.6011 2.263164 15.255372 -1.453281
2008-08-04 08:27:11 51°13.696 2°55.763 21.6012 2.263267 15.256133 -1.453281
2008-08-04 08:27:16 51°13.698 2°55.765 21.6025 2.263267 15.256133 -1.453281
2008-08-04 08:27:21 51°13.7 2°55.767 21.6033 2.263267 15.256133 -1.453281
2008-08-04 08:27:26 51°13.702 2°55.768 21.6014 2.263164 15.255372 -1.453281
2008-08-04 08:27:31 51°13.704 2°55.769 21.5843 2.263164 15.255094 -1.453281
2008-08-04 08:27:36 51°13.705 2°55.77 21.5846 2.263061 15.254055 -1.453281
2008-08-04 08:27:41 51°13.706 2°55.77 21.5882 2.263061 15.253777 -1.453281
2008-08-04 08:27:46 51°13.707 2°55.769 21.5969 2.263164 15.254538 -1.453281
2008-08-04 08:27:51 51°13.707 2°55.769 21.5759 2.263164 15.254538 -1.453281
2008-08-04 08:27:56 51°13.707 2°55.767 21.5844 2.263061 15.253499 -1.453281
2008-08-04 08:28:01 51°13.706 2°55.766 21.5805 2.263164 15.25426 -1.453281
2008-08-04 08:28:06 51°13.704 2°55.766 21.5914 2.263061 15.253777 -1.453281
2008-08-04 08:28:11 51°13.702 2°55.764 21.5859 2.263164 15.254538 -1.453281
2008-08-04 08:28:16 51°13.7 2°55.763 21.5963 2.263061 15.253777 -1.453281
2008-08-04 08:28:21 51°13.698 2°55.761 21.5918 2.263061 15.253777 -1.453281
2008-08-04 08:28:26 51°13.696 2°55.76 21.6005 2.263164 15.254816 -1.453281
2008-08-04 08:28:31 51°13.695 2°55.759 21.5969 2.263164 15.255094 -1.488105
2008-08-04 08:28:36 51°13.693 2°55.758 21.6003 2.263164 15.255094 -1.453281
2008-08-04 08:28:41 51°13.693 2°55.757 21.6019 2.263267 15.256133 -1.453281
2008-08-04 08:28:46 51°13.693 2°55.757 21.6024 2.263267 15.256411 -1.453281
2008-08-04 08:28:51 51°13.693 2°55.756 21.6021 2.263267 15.256411 -1.453281
2008-08-04 08:28:55 51°13.694 2°55.756 21.6025 2.263267 15.256689 -1.453281
2008-08-04 08:29:01 51°13.695 2°55.755 21.6025 2.263267 15.256689 -1.453281
2008-08-04 08:29:06 51°13.697 2°55.755 21.6038 2.263267 15.256689 -1.453281
2008-08-04 08:29:11 51°13.699 2°55.754 21.606 2.263267 15.256967 -1.453281
2008-08-04 08:29:16 51°13.701 2°55.752 21.6071 2.263267 15.256967 -1.453281
2008-08-04 08:29:21 51°13.703 2°55.751 21.6074 2.263267 15.256967 -1.453281
2008-08-04 08:29:26 51°13.706 2°55.748 21.6071 2.263267 15.256967 -1.453281
2008-08-04 08:29:31 51°13.709 2°55.745 21.6068 2.263164 15.255928 -1.453281
2008-08-04 08:29:36 51°13.712 2°55.742 21.6054 2.263164 15.25565 -1.453281
2008-08-04 08:29:41 51°13.716 2°55.738 21.6053 2.263164 15.255372 -1.453281
2008-08-04 08:29:46 51°13.72 2°55.734 21.6033 2.263164 15.255094 -1.453281
2008-08-04 08:29:51 51°13.724 2°55.729 21.5999 2.263164 15.255094 -1.453281
2008-08-04 08:29:56 51°13.729 2°55.724 21.5996 2.263164 15.254816 -1.453281
2008-08-04 08:30:01 51°13.734 2°55.719 21.6001 2.263061 15.253777 -1.453281
2008-08-04 08:30:06 51°13.74 2°55.713 21.5995 2.263164 15.254538 -1.453281
2008-08-04 08:30:11 51°13.746 2°55.708 21.5987 2.263164 15.254816 -1.453281
2008-08-04 08:30:16 51°13.752 2°55.702 21.6001 2.263061 15.254333 -1.453281
2008-08-04 08:30:21 51°13.758 2°55.696 21.6014 2.263061 15.254333 -1.453281
2008-08-04 08:30:26 51°13.764 2°55.689 21.6038 2.263061 15.254611 -1.453281
2008-08-04 08:30:31 51°13.771 2°55.682 21.6025 2.263164 15.255372 -1.453281
2008-08-04 08:30:36 51°13.779 2°55.675 21.6004 2.263061 15.254889 -1.453281
2008-08-04 08:30:41 51°13.788 2°55.667 21.5971 2.263061 15.254889 -1.453281
2008-08-04 08:30:46 51°13.797 2°55.66 21.5935 2.263061 15.254611 -1.453281
2008-08-04 08:30:51 51°13.807 2°55.652 21.5876 2.263061 15.254611 -1.453281
2008-08-04 08:30:56 51°13.817 2°55.644 21.5909 2.262957 15.253571 -1.453281
2008-08-04 08:31:01 51°13.827 2°55.636 21.5841 2.263061 15.254333 -1.453281
2008-08-04 08:31:06 51°13.838 2°55.628 21.5968 2.262957 15.253571 -1.453281
2008-08-04 08:31:11 51°13.848 2°55.619 21.5926 2.262957 15.253571 -1.453281
2008-08-04 08:31:16 51°13.859 2°55.611 21.5856 2.262957 15.253293 -1.453281
2008-08-04 08:31:21 51°13.87 2°55.603 21.5877 2.262957 15.253293 -1.453281
2008-08-04 08:31:26 51°13.882 2°55.595 21.604 2.262957 15.253293 -1.453281
2008-08-04 08:31:31 51°13.893 2°55.587 21.6094 2.263061 15.254611 -1.453281
2008-08-04 08:31:36 51°13.905 2°55.579 21.6034 2.262957 15.253849 -1.453281
2008-08-04 08:31:41 51°13.916 2°55.57 21.5966 2.262854 15.25281 -1.453281
2008-08-04 08:31:46 51°13.927 2°55.561 21.5916 2.263061 15.254333 -1.453281
2008-08-04 08:31:51 51°13.939 2°55.553 21.6081 2.263061 15.254333 -1.453281
2008-08-04 08:31:56 51°13.95 2°55.545 21.6031 2.262957 15.253849 -1.453281
2008-08-04 08:32:01 51°13.962 2°55.536 21.6036 2.262957 15.253849 -1.453281
2008-08-04 08:32:06 51°13.974 2°55.527 21.5985 2.262957 15.253571 -1.453281
2008-08-04 08:32:11 51°13.985 2°55.519 21.5932 2.262854 15.25281 -1.453281
2008-08-04 08:32:16 51°13.997 2°55.51 21.6016 2.262957 15.253571 -1.453281
2008-08-04 08:32:21 51°14.008 2°55.501 21.6031 2.262957 15.253571 -1.453281
2008-08-04 08:32:26 51°14.02 2°55.493 21.6032 2.262957 15.253849 -1.453281
2008-08-04 08:32:31 51°14.031 2°55.484 21.5988 2.262854 15.25281 -1.453281
2008-08-04 08:32:36 51°14.043 2°55.476 21.606 2.262957 15.253849 -1.453281
2008-08-04 08:32:41 51°14.055 2°55.468 21.6089 2.262957 15.254127 -1.453281
2008-08-04 08:32:46 51°14.066 2°55.459 21.5961 2.262854 15.253088 -1.453281
2008-08-04 08:32:51 51°14.078 2°55.45 21.5979 2.262854 15.253088 -1.453281
2008-08-04 08:32:56 51°14.089 2°55.441 21.5865 2.262957 15.253849 -1.453281
2008-08-04 08:33:01 51°14.101 2°55.433 21.5925 2.262957 15.253849 -1.453281
2008-08-04 08:33:06 51°14.112 2°55.425 21.5891 2.262751 15.252327 -1.453281
2008-08-04 08:33:11 51°14.123 2°55.417 21.5955 2.262854 15.253088 -1.453281
2008-08-04 08:33:16 51°14.133 2°55.41 21.609 2.262957 15.254127 -1.488105
2008-08-04 08:33:21 51°14.144 2°55.402 21.6188 2.262957 15.254127 -1.488105
2008-08-04 08:33:26 51°14.153 2°55.395 21.6185 2.262957 15.254405 -1.488105
2008-08-04 08:33:31 51°14.163 2°55.387 21.6142 2.262957 15.254683 -1.453281
2008-08-04 08:33:36 51°14.172 2°55.38 21.6161 2.262957 15.254683 -1.453281
2008-08-04 08:33:41 51°14.181 2°55.372 21.6141 2.262957 15.254683 -1.453281
2008-08-04 08:33:46 51°14.19 2°55.365 21.6171 2.263061 15.255444 -1.453281
2008-08-04 08:33:51 51°14.198 2°55.358 21.6187 2.263061 15.255444 -1.453281
2008-08-04 08:33:56 51°14.207 2°55.35 21.6235 2.263061 15.255722 -1.453281
2008-08-04 08:34:01 51°14.215 2°55.342 21.6193 2.263061 15.255722 -1.453281
2008-08-04 08:34:06 51°14.223 2°55.335 21.6231 2.263061 15.256 -1.453281
2008-08-04 08:34:11 51°14.231 2°55.327 21.6246 2.263061 15.256278 -1.453281
2008-08-04 08:34:16 51°14.238 2°55.318 21.6271 2.263164 15.257318 -1.453281
2008-08-04 08:34:21 51°14.245 2°55.31 21.6257 2.263164 15.257318 -1.453281
2008-08-04 08:34:26 51°14.253 2°55.301 21.6264 2.263164 15.257318 -1.453281
2008-08-04 08:34:31 51°14.259 2°55.292 21.6201 2.263061 15.256556 -1.453281
2008-08-04 08:34:36 51°14.266 2°55.282 21.6256 2.263061 15.256556 -1.453281
2008-08-04 08:34:41 51°14.273 2°55.273 21.6216 2.263164 15.257596 -1.453281
2008-08-04 08:34:46 51°14.28 2°55.263 21.6246 2.263164 15.257874 -1.453281
2008-08-04 08:34:51 51°14.286 2°55.252 21.6189 2.263164 15.257874 -1.453281
2008-08-04 08:34:56 51°14.293 2°55.241 21.6249 2.263061 15.257112 -1.453281
2008-08-04 08:35:01 51°14.299 2°55.229 21.6189 2.263164 15.257874 -1.453281
2008-08-04 08:35:06 51°14.305 2°55.218 21.6211 2.263164 15.258152 -1.453281
2008-08-04 08:35:11 51°14.312 2°55.205 21.6207 2.263164 15.257874 -1.453281
2008-08-04 08:35:16 51°14.318 2°55.193 21.6163 2.263061 15.257112 -1.488105
2008-08-04 08:35:21 51°14.324 2°55.179 21.6151 2.263061 15.257112 -1.488105
2008-08-04 08:35:26 51°14.329 2°55.166 21.6026 2.263061 15.256834 -1.453281
2008-08-04 08:35:31 51°14.335 2°55.152 21.6202 2.263061 15.256556 -1.453281
2008-08-04 08:35:36 51°14.341 2°55.137 21.6128 2.263061 15.256278 -1.453281
2008-08-04 08:35:41 51°14.347 2°55.121 21.6147 2.263061 15.256556 -1.453281
2008-08-04 08:35:46 51°14.354 2°55.105 21.6041 2.262957 15.256073 -1.453281
2008-08-04 08:35:51 51°14.36 2°55.088 21.6082 2.262957 15.256073 -1.453281
2008-08-04 08:35:56 51°14.367 2°55.07 21.5828 2.262854 15.254755 -1.453281
2008-08-04 08:36:01 51°14.374 2°55.052 21.6055 2.262854 15.254478 -1.488105
2008-08-04 08:36:06 51°14.381 2°55.034 21.5774 2.262854 15.255033 -1.453281
2008-08-04 08:36:11 51°14.389 2°55.016 21.5933 2.262647 15.252399 -1.453281
2008-08-04 08:36:16 51°14.397 2°54.998 21.5876 2.262751 15.250937 -1.453281
2008-08-04 08:36:21 51°14.405 2°54.98 21.5934 2.262751 15.250937 -1.453281
2008-08-04 08:36:26 51°14.414 2°54.962 21.5744 2.262854 15.250587 -1.453281
2008-08-04 08:36:31 51°14.423 2°54.944 21.5961 2.262544 15.248026 -1.453281
2008-08-04 08:36:36 51°14.432 2°54.926 21.5975 2.262751 15.249826 -1.488105
2008-08-04 08:36:41 51°14.442 2°54.908 21.5822 2.262751 15.250104 -1.453281
2008-08-04 08:36:46 51°14.452 2°54.892 21.5878 2.262544 15.248859 -1.453281
2008-08-04 08:36:51 51°14.462 2°54.875 21.5651 2.262544 15.248859 -1.453281
2008-08-04 08:36:56 51°14.473 2°54.86 21.5817 2.262544 15.247748 -1.453281
2008-08-04 08:37:01 51°14.485 2°54.846 21.5655 2.262544 15.246915 -1.453281
2008-08-04 08:37:06 51°14.498 2°54.833 21.5864 2.262957 15.250515 -1.453281
2008-08-04 08:37:11 51°14.511 2°54.823 21.5645 2.263061 15.254611 -1.453281
2008-08-04 08:37:16 51°14.524 2°54.813 21.5804 2.263061 15.26184 -1.453281
2008-08-04 08:37:21 51°14.538 2°54.803 21.5934 2.263061 15.26184 -1.453281
2008-08-04 08:37:26 51°14.552 2°54.795 21.5923 2.263061 15.270749 -1.453281
2008-08-04 08:37:31 51°14.566 2°54.786 21.5882 2.263371 15.278331 -1.453281
2008-08-04 08:37:36 51°14.579 2°54.777 21.5786 2.263164 15.274576 -1.453281
2008-08-04 08:37:41 51°14.593 2°54.768 21.5849 2.263164 15.26984 -1.453281
2008-08-04 08:37:46 51°14.607 2°54.76 21.5652 2.263888 15.273224 -1.453281
2008-08-04 08:37:51 51°14.621 2°54.754 21.5702 2.263888 15.273224 -1.453281
2008-08-04 08:37:56 51°14.635 2°54.746 21.5808 2.263577 15.267041 -1.453281
2008-08-04 08:38:01 51°14.649 2°54.74 21.5883 2.263577 15.267041 -1.453281
2008-08-04 08:38:06 51°14.664 2°54.733 21.5886 2.263887 15.269883 -1.453281
2008-08-04 08:38:11 51°14.678 2°54.727 21.5875 2.263164 15.262602 -1.453281
2008-08-04 08:38:16 51°14.692 2°54.72 21.5848 2.263577 15.263423 -1.453281
2008-08-04 08:38:21 51°14.706 2°54.713 21.5865 2.263577 15.263423 -1.453281
2008-08-04 08:38:26 51°14.72 2°54.705 21.5838 2.263681 15.265854 -1.453281
2008-08-04 08:38:31 51°14.734 2°54.698 21.5887 2.263474 15.264331 -1.453281
2008-08-04 08:38:36 51°14.748 2°54.69 21.5792 2.263267 15.26086 -1.453281
2008-08-04 08:38:41 51°14.762 2°54.682 21.5693 2.263371 15.259953 -1.488105
2008-08-04 08:38:46 51°14.776 2°54.674 21.5778 2.263474 15.260436 -1.453281
2008-08-04 08:38:51 51°14.79 2°54.668 21.578 2.263474 15.260436 -1.453281
2008-08-04 08:38:56 51°14.805 2°54.66 21.5733 2.263267 15.260304 -1.453281
2008-08-04 08:39:01 51°14.818 2°54.654 21.5936 2.263887 15.265152 -1.453281
2008-08-04 08:39:06 51°14.832 2°54.646 21.5774 2.263164 15.25982 -1.488105
2008-08-04 08:39:11 51°14.846 2°54.636 21.5881 2.262647 15.256012 -1.453281
2008-08-04 08:39:16 51°14.86 2°54.627 21.5858 2.262854 15.260317 -1.453281
2008-08-04 08:39:21 51°14.873 2°54.619 21.5768 2.262854 15.260317 -1.453281
2008-08-04 08:39:26 51°14.887 2°54.61 21.5885 2.262234 15.257415 -1.453281
2008-08-04 08:39:31 51°14.901 2°54.601 21.5761 2.262751 15.268462 -1.453281
2008-08-04 08:39:36 51°14.915 2°54.592 21.5618 2.262234 15.268273 -1.453281
2008-08-04 08:39:41 51°14.929 2°54.584 21.5664 2.262958 15.269987 -1.488105
2008-08-04 08:39:46 51°14.943 2°54.576 21.5834 2.263578 15.271217 -1.453281
2008-08-04 08:39:51 51°14.957 2°54.57 21.5771 2.263578 15.271217 -1.453281
2008-08-04 08:39:56 51°14.971 2°54.562 21.5856 2.263474 15.268506 -1.453281
2008-08-04 08:40:01 51°14.985 2°54.555 21.5839 2.263474 15.26767 -1.453281
2008-08-04 08:40:06 51°14.998 2°54.546 21.5828 2.263474 15.269898 -1.453281
2008-08-04 08:40:11 51°15.011 2°54.537 21.5853 2.263371 15.276101 -1.453281
2008-08-04 08:40:16 51°15.024 2°54.528 21.5716 2.263475 15.28886 -1.453281
2008-08-04 08:40:21 51°15.037 2°54.52 21.5877 2.263475 15.28886 -1.453281
2008-08-04 08:40:26 51°15.05 2°54.51 21.5759 2.263578 15.301082 -1.453281
2008-08-04 08:40:31 51°15.063 2°54.502 21.5959 2.263578 15.302761 -1.453281
2008-08-04 08:40:36 51°15.075 2°54.493 21.5838 2.262855 15.295458 -1.453281
2008-08-04 08:40:41 51°15.088 2°54.484 21.5921 2.262958 15.290073 -1.453281
2008-08-04 08:40:46 51°15.101 2°54.475 21.589 2.263268 15.289289 -1.453281
2008-08-04 08:40:51 51°15.113 2°54.466 21.5786 2.263268 15.289289 -1.453281
2008-08-04 08:40:56 51°15.126 2°54.457 21.5709 2.262855 15.285679 -1.453281
2008-08-04 08:41:01 51°15.138 2°54.449 21.5859 2.263061 15.287484 -1.453281
2008-08-04 08:41:06 51°15.151 2°54.441 21.5774 2.262958 15.288117 -1.453281
2008-08-04 08:41:10 51°15.161 2°54.434 21.5877 2.263061 15.289439 -1.453281
2008-08-04 08:41:16 51°15.176 2°54.424 21.5885 2.262855 15.285399 -1.453281
2008-08-04 08:41:21 51°15.189 2°54.415 21.5751 2.262855 15.285399 -1.453281
2008-08-04 08:41:25 51°15.199 2°54.408 21.5872 2.262958 15.285046 -1.453281
2008-08-04 08:41:30 51°15.211 2°54.399 21.5824 2.262855 15.28205 -1.453281
2008-08-04 08:41:35 51°15.224 2°54.391 21.5877 2.262751 15.277939 -1.453281
2008-08-04 08:41:40 51°15.237 2°54.383 21.5787 2.262854 15.278981 -1.453281
2008-08-04 08:41:45 51°15.249 2°54.374 21.5902 2.262648 15.28164 -1.488105
2008-08-04 08:41:50 51°15.262 2°54.367 21.5876 2.262648 15.28164 -1.488105
2008-08-04 08:41:55 51°15.275 2°54.359 21.5882 2.262855 15.297136 -1.453281
2008-08-04 08:42:00 51°15.288 2°54.351 21.5951 2.262648 15.305964 -1.453281
2008-08-04 08:42:05 51°15.3 2°54.344 21.5908 2.262545 15.309963 -1.453281
2008-08-04 08:42:10 51°15.313 2°54.336 21.601 2.262752 15.312052 -1.488105
2008-08-04 08:42:14 51°15.323 2°54.329 21.5869 2.262958 15.310778 -1.453281
2008-08-04 08:42:20 51°15.339 2°54.321 21.5914 2.262958 15.310778 -1.453281
2008-08-04 08:42:25 51°15.352 2°54.312 21.577 2.262545 15.306881 -1.453281
2008-08-04 08:42:29 51°15.362 2°54.306 21.5981 2.262648 15.306244 -1.453281
2008-08-04 08:42:34 51°15.374 2°54.298 21.5832 2.262545 15.298762 -1.453281
2008-08-04 08:42:39 51°15.387 2°54.291 21.5971 2.262545 15.288696 -1.453281
2008-08-04 08:42:44 51°15.4 2°54.283 21.5981 2.262441 15.277883 -1.453281
2008-08-04 08:42:49 51°15.413 2°54.275 21.5811 2.262441 15.277883 -1.453281
2008-08-04 08:42:54 51°15.426 2°54.267 21.5934 2.262234 15.267437 -1.488105
2008-08-04 08:42:59 51°15.439 2°54.259 21.5883 2.262441 15.269519 -1.453281
2008-08-04 08:43:04 51°15.452 2°54.251 21.599 2.262131 15.272527 -1.453281
2008-08-04 08:43:09 51°15.464 2°54.243 21.5937 2.261925 15.283558 -1.453281
2008-08-04 08:43:13 51°15.474 2°54.237 21.5854 2.262235 15.301228 -1.453281
2008-08-04 08:43:18 51°15.487 2°54.229 21.5942 2.262235 15.301228 -1.453281
2008-08-04 08:43:23 51°15.5 2°54.221 21.5981 2.262132 15.298505 -1.453281
2008-08-04 08:43:29 51°15.515 2°54.212 21.5981 2.261925 15.290823 -1.453281
2008-08-04 08:43:33 51°15.525 2°54.206 21.5867 2.261821 15.28475 -1.453281
2008-08-04 08:43:38 51°15.538 2°54.198 21.5944 2.261925 15.285513 -1.488105
2008-08-04 08:43:43 51°15.55 2°54.189 21.6005 2.261718 15.288737 -1.453281
2008-08-04 08:43:48 51°15.563 2°54.181 21.5957 2.261718 15.288737 -1.453281
2008-08-04 08:43:53 51°15.576 2°54.173 21.5967 2.261615 15.297204 -1.453281
2008-08-04 08:43:58 51°15.588 2°54.164 21.5992 2.261615 15.308128 -1.453281
2008-08-04 08:44:02 51°15.598 2°54.158 21.5908 2.261409 15.311647 -1.453281
2008-08-04 08:44:07 51°15.611 2°54.149 21.5971 2.261512 15.315779 -1.453281
2008-08-04 08:44:12 51°15.624 2°54.14 21.6049 2.261512 15.318586 -1.453281
2008-08-04 08:44:17 51°15.636 2°54.132 21.5945 2.261512 15.318586 -1.453281
2008-08-04 08:44:22 51°15.649 2°54.124 21.5967 2.261822 15.324533 -1.453281
2008-08-04 08:44:27 51°15.662 2°54.116 21.6048 2.261822 15.327344 -1.453281
2008-08-04 08:44:32 51°15.674 2°54.108 21.5943 2.261306 15.328858 -1.488105
2008-08-04 08:44:37 51°15.687 2°54.1 21.607 2.261513 15.341931 -1.453281
2008-08-04 08:44:42 51°15.699 2°54.092 21.5963 2.261409 15.339475 -1.453281
2008-08-04 08:44:48 51°15.714 2°54.083 21.5992 2.261409 15.339475 -1.453281
2008-08-04 08:44:53 51°15.727 2°54.075 21.6076 2.260996 15.324593 -1.453281
2008-08-04 08:44:57 51°15.737 2°54.068 21.6004 2.261202 15.319099 -1.453281
2008-08-04 08:45:02 51°15.75 2°54.06 21.5938 2.261202 15.315729 -1.453281
2008-08-04 08:45:07 51°15.763 2°54.053 21.5972 2.261409 15.316417 -1.453281
2008-08-04 08:45:12 51°15.775 2°54.045 21.6034 2.260995 15.312235 -1.453281
2008-08-04 08:45:17 51°15.788 2°54.038 21.606 2.260995 15.312235 -1.453281
2008-08-04 08:45:22 51°15.801 2°54.032 21.601 2.261099 15.31693 -1.453281
2008-08-04 08:45:28 51°15.817 2°54.025 21.6015 2.260789 15.316038 -1.453281
2008-08-04 08:45:33 51°15.83 2°54.02 21.6017 2.260376 15.314662 -1.453281
2008-08-04 08:45:37 51°15.84 2°54.016 21.6027 2.261099 15.325358 -1.453281
2008-08-04 08:45:42 51°15.854 2°54.012 21.6035 2.260789 15.325592 -1.453281
2008-08-04 08:45:48 51°15.87 2°54.008 21.6043 2.260789 15.325592 -1.453281
2008-08-04 08:45:53 51°15.882 2°54.005 21.609 2.260479 15.317393 -1.453281
2008-08-04 08:45:57 51°15.893 2°54.003 21.6123 2.260582 15.314227 -1.453281
2008-08-04 08:46:02 51°15.906 2°54.002 21.602 2.260479 15.312339 -1.453281
2008-08-04 08:46:07 51°15.92 2°54.001 21.6161 2.260376 15.313258 -1.453281
2008-08-04 08:46:12 51°15.933 2°54.001 21.6061 2.260686 15.320329 -1.453281
2008-08-04 08:46:17 51°15.946 2°54.001 21.6104 2.260686 15.320329 -1.453281
2008-08-04 08:46:22 51°15.959 2°54.003 21.6162 2.260169 15.319874 -1.453281
2008-08-04 08:46:27 51°15.973 2°54.004 21.603 2.260479 15.324982 -1.453281
2008-08-04 08:46:32 51°15.985 2°54.007 21.614 2.260686 15.330171 -1.453281
2008-08-04 08:46:37 51°15.998 2°54.01 21.6174 2.260169 15.326341 -1.453281
2008-08-04 08:46:42 51°16.011 2°54.014 21.618 2.260066 15.323606 -1.488105
2008-08-04 08:46:48 51°16.026 2°54.02 21.6151 2.260066 15.323606 -1.488105
2008-08-04 08:46:52 51°16.036 2°54.023 21.6193 2.260066 15.318827 -1.453281
2008-08-04 08:46:57 51°16.049 2°54.028 21.613 2.259756 15.314002 -1.453281
2008-08-04 08:47:02 51°16.062 2°54.033 21.6176 2.259962 15.31469 -1.453281
2008-08-04 08:47:07 51°16.074 2°54.038 21.621 2.259859 15.314486 -1.453281
2008-08-04 08:47:12 51°16.087 2°54.044 21.6181 2.259652 15.316889 -1.418457
2008-08-04 08:47:17 51°16.1 2°54.048 21.6243 2.259652 15.316889 -1.418457
2008-08-04 08:47:22 51°16.112 2°54.054 21.6239 2.259653 15.325888 -1.488105
2008-08-04 08:47:28 51°16.128 2°54.059 21.6269 2.259756 15.333693 -1.488105
2008-08-04 08:47:33 51°16.14 2°54.063 21.6254 2.259756 15.335665 -1.488105
2008-08-04 08:47:37 51°16.15 2°54.066 21.6244 2.259136 15.329939 -1.488105
2008-08-04 08:47:42 51°16.163 2°54.068 21.6405 2.258826 15.318634 -1.488105
2008-08-04 08:47:48 51°16.178 2°54.068 21.646 2.258826 15.318634 -1.488105
2008-08-04 08:47:53 51°16.191 2°54.067 21.6321 2.258929 15.314339 -1.488105
2008-08-04 08:47:57 51°16.201 2°54.064 21.6299 2.258516 15.308186 -1.488105
2008-08-04 08:48:02 51°16.214 2°54.06 21.6271 2.258619 15.306986 -1.488105
2008-08-04 08:48:07 51°16.226 2°54.054 21.6385 2.258412 15.30714 -1.488105
2008-08-04 08:48:13 51°16.24 2°54.045 21.6281 2.258413 15.308544 -1.488105
2008-08-04 08:48:17 51°16.249 2°54.038 21.6374 2.258413 15.308544 -1.488105
2008-08-04 08:48:22 51°16.26 2°54.028 21.6371 2.258206 15.308698 -1.488105
2008-08-04 08:48:27 51°16.271 2°54.016 21.6376 2.258103 15.308495 -1.488105
2008-08-04 08:48:32 51°16.281 2°54.003 21.6341 2.257689 15.302904 -1.488105
2008-08-04 08:48:37 51°16.291 2°53.989 21.6285 2.257792 15.30002 -1.488105
2008-08-04 08:48:42 51°16.3 2°53.974 21.6311 2.257586 15.295684 -1.488105
2008-08-04 08:48:47 51°16.31 2°53.958 21.6317 2.257586 15.295684 -1.488105
2008-08-04 08:48:52 51°16.32 2°53.943 21.629 2.258206 15.298592 -1.488105
2008-08-04 08:48:57 51°16.329 2°53.928 21.6253 2.258309 15.299357 -1.488105
2008-08-04 08:49:02 51°16.339 2°53.912 21.6263 2.258619 15.302214 -1.488105
2008-08-04 08:49:07 51°16.35 2°53.897 21.6299 2.259136 15.310813 -1.488105
2008-08-04 08:49:12 51°16.359 2°53.882 21.641 2.259136 15.315871 -1.488105
2008-08-04 08:49:17 51°16.37 2°53.867 21.6362 2.259136 15.315871 -1.488105
2008-08-04 08:49:22 51°16.379 2°53.852 21.6385 2.258929 15.306755 -1.488105
2008-08-04 08:49:27 51°16.389 2°53.837 21.6375 2.258722 15.295968 -1.488105
2008-08-04 08:49:33 51°16.401 2°53.818 21.6403 2.258515 15.282396 -1.488105
2008-08-04 08:49:37 51°16.409 2°53.805 21.6318 2.258619 15.278964 -1.488105
2008-08-04 08:49:42 51°16.419 2°53.79 21.6377 2.258515 15.284075 -1.488105
2008-08-04 08:49:48 51°16.431 2°53.771 21.638 2.258515 15.284075 -1.488105
2008-08-04 08:49:52 51°16.439 2°53.759 21.6358 2.258515 15.285194 -1.488105
2008-08-04 08:49:57 51°16.449 2°53.743 21.644 2.258412 15.282751 -1.488105
2008-08-04 08:50:02 51°16.459 2°53.727 21.6347 2.258412 15.279114 -1.488105
2008-08-04 08:50:07 51°16.469 2°53.711 21.6423 2.257999 15.274939 -1.488105
2008-08-04 08:50:13 51°16.482 2°53.691 21.6386 2.258205 15.278704 -1.488105
2008-08-04 08:50:17 51°16.49 2°53.678 21.6466 2.258205 15.278704 -1.488105
2008-08-04 08:50:22 51°16.501 2°53.662 21.637 2.258205 15.281502 -1.488105
2008-08-04 08:50:27 51°16.512 2°53.645 21.6467 2.258309 15.288145 -1.488105
2008-08-04 08:50:33 51°16.524 2°53.624 21.6457 2.258102 15.29306 -1.488105
2008-08-04 08:50:37 51°16.533 2°53.61 21.6488 2.257999 15.292015 -1.488105
2008-08-04 08:50:42 51°16.544 2°53.593 21.6484 2.258102 15.298108 -1.488105
2008-08-04 08:50:47 51°16.556 2°53.576 21.6491 2.258102 15.298108 -1.488105
2008-08-04 08:50:52 51°16.567 2°53.558 21.6465 2.258102 15.300072 -1.488105
2008-08-04 08:50:57 51°16.578 2°53.54 21.648 2.257586 15.29877 -1.488105
2008-08-04 08:51:02 51°16.59 2°53.522 21.6405 2.257689 15.305151 -1.488105
2008-08-04 08:51:07 51°16.601 2°53.504 21.6476 2.257896 15.310054 -1.488105
2008-08-04 08:51:12 51°16.613 2°53.486 21.6437 2.257793 15.310412 -1.488105
2008-08-04 08:51:17 51°16.624 2°53.469 21.6462 2.257793 15.310412 -1.488105
2008-08-04 08:51:22 51°16.636 2°53.451 21.6499 2.257689 15.308522 -1.488105
2008-08-04 08:51:27 51°16.648 2°53.434 21.65 2.257896 15.30893 -1.488105
2008-08-04 08:51:33 51°16.663 2°53.413 21.6491 2.257689 15.306836 -1.488105
2008-08-04 08:51:37 51°16.673 2°53.4 21.6481 2.257483 15.305867 -1.488105
2008-08-04 08:51:42 51°16.685 2°53.383 21.6432 2.257689 15.31049 -1.488105
2008-08-04 08:51:47 51°16.697 2°53.365 21.6558 2.257689 15.31049 -1.488105
2008-08-04 08:51:52 51°16.709 2°53.349 21.6461 2.257793 15.314067 -1.488105
2008-08-04 08:51:57 51°16.721 2°53.332 21.6545 2.257689 15.310209 -1.488105
2008-08-04 08:52:02 51°16.733 2°53.316 21.6544 2.257173 15.30919 -1.488105
2008-08-04 08:52:07 51°16.746 2°53.301 21.6412 2.257689 15.305151 -1.488105
2008-08-04 08:52:12 51°16.759 2°53.285 21.6537 2.257793 15.302266 -1.488105
2008-08-04 08:52:17 51°16.773 2°53.272 21.6509 2.257793 15.302266 -1.488105
2008-08-04 08:52:22 51°16.786 2°53.259 21.6587 2.257999 15.307729 -1.488105
2008-08-04 08:52:27 51°16.8 2°53.247 21.6546 2.257689 15.309927 -1.488105
2008-08-04 08:52:33 51°16.816 2°53.232 21.659 2.257689 15.31049 -1.488105
2008-08-04 08:52:37 51°16.827 2°53.223 21.6602 2.257173 15.305536 -1.488105
2008-08-04 08:52:42 51°16.841 2°53.212 21.6616 2.256966 15.29923 -1.488105
2008-08-04 08:52:47 51°16.855 2°53.201 21.6649 2.256966 15.29923 -1.488105
2008-08-04 08:52:52 51°16.869 2°53.192 21.6539 2.257069 15.298872 -1.488105
2008-08-04 08:52:57 51°16.883 2°53.182 21.6631 2.256863 15.29678 -1.488105
2008-08-04 08:53:02 51°16.898 2°53.175 21.6596 2.257172 15.296551 -1.488105
2008-08-04 08:53:07 51°16.911 2°53.167 21.6721 2.256759 15.294611 -1.488105
2008-08-04 08:53:12 51°16.926 2°53.161 21.6557 2.256759 15.305563 -1.488105
2008-08-04 08:53:17 51°16.939 2°53.155 21.6634 2.256759 15.305563 -1.488105
2008-08-04 08:53:22 51°16.954 2°53.151 21.6662 2.256863 15.313078 -1.488105
2008-08-04 08:53:27 51°16.968 2°53.147 21.6592 2.256966 15.31694 -1.488105
2008-08-04 08:53:32 51°16.982 2°53.146 21.6618 2.256346 15.317408 -1.488105
2008-08-04 08:53:37 51°16.997 2°53.144 21.672 2.257793 15.333781 -1.488105
2008-08-04 08:53:42 51°17.011 2°53.145 21.6762 2.257277 15.330792 -1.488105
2008-08-04 08:53:48 51°17.028 2°53.147 21.6664 2.257277 15.330792 -1.488105
2008-08-04 08:53:52 51°17.04 2°53.149 21.6755 2.257587 15.333657 -1.488105
2008-08-04 08:53:57 51°17.054 2°53.152 21.6731 2.257276 15.32769 -1.488105
2008-08-04 08:54:02 51°17.068 2°53.155 21.6744 2.25707 15.322775 -1.488105
2008-08-04 08:54:07 51°17.083 2°53.158 21.6685 2.25707 15.319677 -1.488105
2008-08-04 08:54:12 51°17.097 2°53.163 21.6734 2.256553 15.312748 -1.488105
2008-08-04 08:54:17 51°17.112 2°53.166 21.6732 2.256553 15.312748 -1.488105
2008-08-04 08:54:22 51°17.126 2°53.172 21.6704 2.256553 15.311623 -1.488105
2008-08-04 08:54:27 51°17.141 2°53.176 21.6696 2.257793 15.323072 -1.488105
2008-08-04 08:54:33 51°17.157 2°53.183 21.6689 2.257586 15.322384 -1.488105
2008-08-04 08:54:37 51°17.169 2°53.187 21.6822 2.256243 15.312419 -1.522929
2008-08-04 08:54:42 51°17.183 2°53.194 21.6725 2.25738 15.320569 -1.488105
2008-08-04 08:54:48 51°17.2 2°53.202 21.6735 2.25738 15.320569 -1.488105
2008-08-04 08:54:53 51°17.214 2°53.211 21.677 2.25707 15.317988 -1.488105
2008-08-04 08:54:57 51°17.225 2°53.218 21.6777 2.256036 15.310604 -1.522929
2008-08-04 08:55:02 51°17.238 2°53.227 21.6853 2.257173 15.320444 -1.488105
2008-08-04 08:55:07 51°17.252 2°53.237 21.6798 2.25707 15.321649 -1.488105
2008-08-04 08:55:13 51°17.268 2°53.249 21.6911 2.256553 15.318097 -1.522929
2008-08-04 08:55:17 51°17.278 2°53.257 21.687 2.256553 15.318097 -1.522929
2008-08-04 08:55:22 51°17.291 2°53.268 21.6828 2.25583 15.3147 -1.522929
2008-08-04 08:55:27 51°17.304 2°53.279 21.6779 2.256346 15.320788 -1.522929
2008-08-04 08:55:32 51°17.317 2°53.292 21.6844 2.256657 15.326471 -1.522929
2008-08-04 08:55:37 51°17.328 2°53.305 21.6753 2.256863 15.329133 -1.522929
2008-08-04 08:55:42 51°17.34 2°53.319 21.6774 2.256037 15.321587 -1.522929
2008-08-04 08:55:47 51°17.351 2°53.334 21.6877 2.256037 15.321587 -1.522929
2008-08-04 08:55:53 51°17.364 2°53.352 21.6794 2.25676 15.324419 -1.522929
2008-08-04 08:55:57 51°17.372 2°53.366 21.6879 2.256553 15.32035 -1.522929
2008-08-04 08:56:02 51°17.383 2°53.382 21.7019 2.256863 15.322369 -1.522929
2008-08-04 08:56:07 51°17.392 2°53.401 21.6805 2.256346 15.315437 -1.522929
2008-08-04 08:56:12 51°17.402 2°53.418 21.6866 2.25676 15.319912 -1.522929
2008-08-04 08:56:17 51°17.41 2°53.437 21.6857 2.25676 15.319912 -1.522929
2008-08-04 08:56:22 51°17.42 2°53.455 21.6917 2.25614 15.313904 -1.522929
2008-08-04 08:56:27 51°17.429 2°53.474 21.6913 2.256346 15.316563 -1.522929
2008-08-04 08:56:32 51°17.437 2°53.493 21.6876 2.256036 15.313137 -1.522929
2008-08-04 08:56:37 51°17.446 2°53.511 21.706 2.256243 15.316078 -1.522929
2008-08-04 08:56:42 51°17.454 2°53.532 21.6829 2.257586 15.325764 -1.522929
2008-08-04 08:56:48 51°17.465 2°53.554 21.6976 2.257586 15.325764 -1.522929
2008-08-04 08:56:53 51°17.473 2°53.573 21.6896 2.256656 15.318019 -1.522929
2008-08-04 08:56:57 51°17.48 2°53.588 21.7001 2.25831 15.327468 -1.522929
2008-08-04 08:57:02 51°17.488 2°53.608 21.6961 2.25645 15.310857 -1.522929
2008-08-04 08:57:07 51°17.498 2°53.626 21.6983 2.257896 15.319897 -1.522929
2008-08-04 08:57:12 51°17.506 2°53.646 21.7003 2.256966 15.313282 -1.522929
2008-08-04 08:57:17 51°17.515 2°53.664 21.705 2.256966 15.313282 -1.522929
2008-08-04 08:57:22 51°17.524 2°53.683 21.694 2.25552 15.302835 -1.522929
2008-08-04 08:57:27 51°17.533 2°53.701 21.7156 2.25769 15.321179 -1.522929
2008-08-04 08:57:33 51°17.544 2°53.724 21.6933 2.256553 15.311342 -1.522929
2008-08-04 08:57:37 51°17.552 2°53.738 21.7068 2.255726 15.303243 -1.522929
2008-08-04 08:57:42 51°17.561 2°53.757 21.6982 2.256553 15.307967 -1.522929
2008-08-04 08:57:47 51°17.57 2°53.775 21.703 2.256553 15.307967 -1.522929
2008-08-04 08:57:53 51°17.581 2°53.797 21.702 2.25552 15.299462 -1.522929
2008-08-04 08:57:57 51°17.589 2°53.811 21.7064 2.25645 15.3072 -1.522929
2008-08-04 08:58:02 51°17.598 2°53.83 21.6998 2.256346 15.306434 -1.522929
2008-08-04 08:58:07 51°17.608 2°53.847 21.7059 2.25614 15.306308 -1.522929
2008-08-04 08:58:12 51°17.617 2°53.866 21.7104 2.25614 15.30687 -1.522929
2008-08-04 08:58:17 51°17.627 2°53.884 21.715 2.25614 15.30687 -1.522929
2008-08-04 08:58:22 51°17.636 2°53.903 21.7207 2.25645 15.310575 -1.522929
2008-08-04 08:58:27 51°17.646 2°53.921 21.7177 2.256036 15.308635 -1.522929
2008-08-04 08:58:32 51°17.655 2°53.938 21.7112 2.255416 15.304599 -1.522929
2008-08-04 08:58:37 51°17.665 2°53.956 21.7144 2.255623 15.306976 -1.522929
2008-08-04 08:58:42 51°17.674 2°53.974 21.7056 2.25707 15.318833 -1.522929
2008-08-04 08:58:48 51°17.686 2°53.996 21.7089 2.25707 15.318833 -1.522929
2008-08-04 08:58:53 51°17.696 2°54.012 21.7102 2.256036 15.310323 -1.522929
2008-08-04 08:58:57 51°17.704 2°54.027 21.7271 2.256553 15.314718 -1.522929
2008-08-04 08:59:02 51°17.713 2°54.043 21.7215 2.25676 15.315126 -1.522929
2008-08-04 08:59:07 51°17.723 2°54.057 21.7286 2.256553 15.315 -1.522929
2008-08-04 08:59:12 51°17.733 2°54.069 21.7328 2.25645 15.312826 -1.522929
2008-08-04 08:59:17 51°17.742 2°54.079 21.7354 2.25645 15.312826 -1.522929
2008-08-04 08:59:22 51°17.751 2°54.086 21.722 2.25614 15.308557 -1.522929
2008-08-04 08:59:28 51°17.76 2°54.093 21.7277 2.25645 15.310294 -1.522929
2008-08-04 08:59:33 51°17.767 2°54.098 21.7325 2.256036 15.307791 -1.453281
2008-08-04 08:59:37 51°17.773 2°54.101 21.7314 2.25614 15.308557 -1.488105
2008-08-04 08:59:42 51°17.78 2°54.103 21.729 2.255623 15.305851 -1.522929
2008-08-04 08:59:47 51°17.787 2°54.105 21.7251 2.255623 15.305851 -1.522929
2008-08-04 08:59:53 51°17.794 2°54.106 21.7322 2.255623 15.305851 -1.522929
2008-08-04 08:59:57 51°17.799 2°54.106 21.7372 2.25552 15.305365 -1.522929
2008-08-04 09:00:02 51°17.805 2°54.105 21.7405 2.255313 15.304114 -1.522929
2008-08-04 09:00:07 51°17.81 2°54.104 21.7428 2.25521 15.302785 -1.522929
2008-08-04 09:00:12 51°17.816 2°54.103 21.7351 2.255313 15.304114 -1.522929
2008-08-04 09:00:17 51°17.82 2°54.101 21.7357 2.255313 15.304114 -1.522929
2008-08-04 09:00:22 51°17.825 2°54.098 21.7423 2.255003 15.301815 -1.522929
2008-08-04 09:00:27 51°17.83 2°54.096 21.7432 2.255106 15.303143 -1.522929
2008-08-04 09:00:32 51°17.835 2°54.093 21.7444 2.25521 15.305597 -1.522929
2008-08-04 09:00:37 51°17.839 2°54.09 21.7343 2.255313 15.307771 -1.522929
2008-08-04 09:00:42 51°17.844 2°54.087 21.7384 2.255003 15.305471 -1.522929
2008-08-04 09:00:48 51°17.849 2°54.083 21.7369 2.255003 15.305471 -1.522929
2008-08-04 09:00:53 51°17.853 2°54.08 21.7448 2.255003 15.306034 -1.522929
2008-08-04 09:00:57 51°17.857 2°54.077 21.7468 2.255623 15.311196 -1.522929
2008-08-04 09:01:02 51°17.861 2°54.074 21.7476 2.2549 15.304704 -1.522929
2008-08-04 09:01:07 51°17.865 2°54.07 21.7446 2.254796 15.301688 -1.522929
2008-08-04 09:01:12 51°17.869 2°54.067 21.7471 2.255003 15.301815 -1.522929
2008-08-04 09:01:17 51°17.873 2°54.063 21.7472 2.255003 15.301815 -1.522929
2008-08-04 09:01:22 51°17.877 2°54.06 21.7496 2.255106 15.301175 -1.522929
2008-08-04 09:01:28 51°17.882 2°54.055 21.7479 2.255313 15.301021 -1.522929
2008-08-04 09:01:33 51°17.886 2°54.052 21.7491 2.2549 15.295708 -1.522929
2008-08-04 09:01:37 51°17.889 2°54.05 21.7459 2.255106 15.296678 -1.522929
2008-08-04 09:01:42 51°17.892 2°54.046 21.7454 2.2549 15.295146 -1.522929
2008-08-04 09:01:47 51°17.895 2°54.043 21.7491 2.2549 15.295146 -1.522929
2008-08-04 09:01:53 51°17.899 2°54.04 21.7543 2.255106 15.29724 -1.522929
2008-08-04 09:01:57 51°17.901 2°54.037 21.7485 2.255313 15.300459 -1.488105
2008-08-04 09:02:02 51°17.903 2°54.034 21.7458 2.255313 15.302427 -1.522929
2008-08-04 09:02:07 51°17.905 2°54.031 21.7495 2.255106 15.302581 -1.522929
2008-08-04 09:02:13 51°17.908 2°54.027 21.7555 2.255003 15.303221 -1.522929
2008-08-04 09:02:17 51°17.909 2°54.025 21.7532 2.255003 15.303221 -1.522929
2008-08-04 09:02:22 51°17.911 2°54.022 21.7622 2.255003 15.30519 -1.522929
2008-08-04 09:02:27 51°17.912 2°54.019 21.7526 2.2549 15.306393 -1.522929
2008-08-04 09:02:32 51°17.913 2°54.017 21.7523 2.2549 15.308081 -1.522929
2008-08-04 09:02:37 51°17.915 2°54.015 21.752 2.255107 15.312148 -1.522929
2008-08-04 09:02:42 51°17.916 2°54.013 21.7542 2.254693 15.310207 -1.522929
2008-08-04 09:02:48 51°17.917 2°54.011 21.7662 2.254693 15.310207 -1.522929
2008-08-04 09:02:52 51°17.918 2°54.009 21.7675 2.255107 15.31412 -1.522929
2008-08-04 09:02:57 51°17.919 2°54.007 21.7631 2.255417 15.317266 -1.522929
2008-08-04 09:03:02 51°17.919 2°54.005 21.7714 2.2549 15.312586 -1.522929
2008-08-04 09:03:07 51°17.919 2°54.003 21.7693 2.25459 15.307751 -1.522929
2008-08-04 09:03:12 51°17.92 2°54.001 21.7672 2.255003 15.309692 -1.522929
2008-08-04 09:03:17 51°17.92 2°54 21.7647 2.255003 15.309692 -1.522929
2008-08-04 09:03:22 51°17.92 2°53.998 21.7553 2.255106 15.309333 -1.488105
2008-08-04 09:03:28 51°17.92 2°53.996 21.7633 2.25521 15.309537 -1.522929
2008-08-04 09:03:33 51°17.92 2°53.994 21.7711 2.25521 15.309537 -1.522929
2008-08-04 09:03:37 51°17.92 2°53.993 21.7725 2.254693 15.305703 -1.522929
2008-08-04 09:03:42 51°17.92 2°53.991 21.767 2.254693 15.304859 -1.522929
2008-08-04 09:03:48 51°17.92 2°53.99 21.778 2.254693 15.304859 -1.522929
2008-08-04 09:03:53 51°17.92 2°53.988 21.7757 2.25521 15.308974 -1.488105
2008-08-04 09:03:57 51°17.92 2°53.988 21.7733 2.255003 15.308285 -1.522929
2008-08-04 09:04:02 51°17.919 2°53.986 21.7737 2.2549 15.308363 -1.522929
2008-08-04 09:04:08 51°17.919 2°53.985 21.7801 2.254486 15.305577 -1.522929
2008-08-04 09:04:13 51°17.919 2°53.984 21.7765 2.254383 15.305092 -1.522929
2008-08-04 09:04:17 51°17.918 2°53.983 21.7741 2.254383 15.305092 -1.522929
2008-08-04 09:04:22 51°17.918 2°53.982 21.7737 2.254797 15.309285 -1.522929
2008-08-04 09:04:27 51°17.917 2°53.981 21.7793 2.254693 15.308799 -1.522929
2008-08-04 09:04:32 51°17.916 2°53.98 21.7772 2.254487 15.307547 -1.488105
2008-08-04 09:04:37 51°17.916 2°53.979 21.7845 2.254797 15.310693 -1.522929
2008-08-04 09:04:42 51°17.915 2°53.978 21.7873 2.254797 15.311537 -1.488105
2008-08-04 09:04:48 51°17.914 2°53.978 21.7903 2.254797 15.311537 -1.488105
2008-08-04 09:04:52 51°17.913 2°53.977 21.788 2.254693 15.309926 -1.522929
2008-08-04 09:04:57 51°17.913 2°53.977 21.7857 2.25459 15.308877 -1.522929
2008-08-04 09:05:02 51°17.912 2°53.976 21.7904 2.254487 15.307829 -1.522929
2008-08-04 09:05:07 51°17.911 2°53.976 21.7863 2.254073 15.303917 -1.522929
2008-08-04 09:05:12 51°17.91 2°53.976 21.7827 2.25428 15.306013 -1.522929
2008-08-04 09:05:17 51°17.908 2°53.975 21.7809 2.25428 15.306013 -1.522929
2008-08-04 09:05:22 51°17.908 2°53.976 21.7873 2.25397 15.303713 -1.522929
2008-08-04 09:05:28 51°17.906 2°53.975 21.7969 2.25428 15.306576 -1.522929
2008-08-04 09:05:33 51°17.905 2°53.975 21.7914 2.254073 15.305606 -1.522929
2008-08-04 09:05:37 51°17.904 2°53.975 21.7946 2.25428 15.307703 -1.522929
2008-08-04 09:05:42 51°17.903 2°53.975 21.791 2.254383 15.309033 -1.522929
2008-08-04 09:05:48 51°17.902 2°53.975 21.7987 2.254383 15.309033 -1.522929
2008-08-04 09:05:52 51°17.901 2°53.975 21.7938 2.254177 15.307499 -1.522929
2008-08-04 09:05:57 51°17.9 2°53.975 21.7943 2.254073 15.306732 -1.522929
2008-08-04 09:06:02 51°17.898 2°53.975 21.7912 2.254177 15.307499 -1.522929
2008-08-04 09:06:08 51°17.897 2°53.974 21.7917 2.254073 15.307295 -1.522929
2008-08-04 09:06:13 51°17.895 2°53.974 21.7853 2.25397 15.306809 -1.522929
2008-08-04 09:06:17 51°17.894 2°53.974 21.7899 2.25397 15.306809 -1.522929
2008-08-04 09:06:22 51°17.893 2°53.974 21.8001 2.254073 15.307576 -1.522929
2008-08-04 09:06:27 51°17.891 2°53.974 21.7982 2.25428 15.310237 -1.488105
2008-08-04 09:06:33 51°17.889 2°53.974 21.8046 2.25397 15.308217 -1.522929
2008-08-04 09:06:37 51°17.888 2°53.973 21.8004 2.253867 15.307732 -1.522929
2008-08-04 09:06:42 51°17.887 2°53.973 21.798 2.254073 15.309548 -1.522929
2008-08-04 09:06:47 51°17.885 2°53.973 21.7919 2.254073 15.309548 -1.522929
2008-08-04 09:06:52 51°17.884 2°53.972 21.8011 2.254073 15.309829 -1.522929
2008-08-04 09:06:57 51°17.882 2°53.972 21.8047 2.254073 15.309548 -1.522929
2008-08-04 09:07:02 51°17.881 2°53.972 21.806 2.254073 15.309266 -1.522929
2008-08-04 09:07:07 51°17.879 2°53.971 21.8021 2.254073 15.308703 -1.522929
2008-08-04 09:07:12 51°17.878 2°53.971 21.8016 2.254177 15.310033 -1.522929
2008-08-04 09:07:17 51°17.876 2°53.971 21.8031 2.254177 15.310033 -1.522929
2008-08-04 09:07:22 51°17.874 2°53.97 21.808 2.254177 15.310315 -1.522929
2008-08-04 09:07:28 51°17.872 2°53.97 21.8133 2.25397 15.309344 -1.522929
2008-08-04 09:07:33 51°17.871 2°53.97 21.8133 2.25397 15.309344 -1.522929
2008-08-04 09:07:37 51°17.87 2°53.97 21.8094 2.25366 15.306479 -1.522929
2008-08-04 09:07:42 51°17.868 2°53.969 21.8155 2.253867 15.308295 -1.522929
2008-08-04 09:07:48 51°17.866 2°53.969 21.803 2.253867 15.308295 -1.522929
2008-08-04 09:07:52 51°17.865 2°53.969 21.8022 2.25366 15.306479 -1.522929
2008-08-04 09:07:57 51°17.864 2°53.969 21.8055 2.253867 15.307732 -1.522929
2008-08-04 09:08:02 51°17.862 2°53.969 21.8047 2.254073 15.309829 -1.522929
2008-08-04 09:08:07 51°17.86 2°53.968 21.8134 2.25397 15.308781 -1.522929
2008-08-04 09:08:13 51°17.858 2°53.968 21.8172 2.25397 15.308499 -1.522929
2008-08-04 09:08:17 51°17.857 2°53.969 21.8185 2.25397 15.308499 -1.522929
2008-08-04 09:08:22 51°17.855 2°53.969 21.8186 2.25397 15.308217 -1.522929
2008-08-04 09:08:28 51°17.853 2°53.968 21.8173 2.253763 15.30612 -1.522929
2008-08-04 09:08:33 51°17.851 2°53.968 21.8216 2.253557 15.304023 -1.522929
2008-08-04 09:08:37 51°17.85 2°53.968 21.8215 2.253557 15.303178 -1.522929
2008-08-04 09:08:42 51°17.848 2°53.968 21.821 2.253867 15.305761 -1.522929
2008-08-04 09:08:47 51°17.847 2°53.968 21.8134 2.253867 15.305761 -1.522929
2008-08-04 09:08:53 51°17.845 2°53.968 21.8184 2.253453 15.302693 -1.522929
2008-08-04 09:08:57 51°17.843 2°53.968 21.8192 2.253453 15.302411 -1.522929
2008-08-04 09:09:02 51°17.842 2°53.968 21.8146 2.253557 15.304023 -1.488105
2008-08-04 09:09:07 51°17.84 2°53.967 21.8177 2.253763 15.30612 -1.522929
2008-08-04 09:09:12 51°17.838 2°53.967 21.827 2.253557 15.304586 -1.522929
2008-08-04 09:09:17 51°17.836 2°53.967 21.8286 2.253557 15.304586 -1.522929
2008-08-04 09:09:22 51°17.835 2°53.967 21.8285 2.253867 15.307169 -1.522929
2008-08-04 09:09:27 51°17.833 2°53.967 21.8329 2.25366 15.305916 -1.522929
2008-08-04 09:09:33 51°17.831 2°53.966 21.8269 2.25366 15.305635 -1.488105
2008-08-04 09:09:37 51°17.83 2°53.966 21.8242 2.25366 15.305916 -1.522929
2008-08-04 09:09:42 51°17.828 2°53.966 21.8296 2.253557 15.304868 -1.522929
2008-08-04 09:09:47 51°17.827 2°53.966 21.8296 2.253557 15.304868 -1.522929
2008-08-04 09:09:52 51°17.825 2°53.966 21.8343 2.25366 15.305353 -1.522929
2008-08-04 09:09:57 51°17.824 2°53.965 21.8332 2.253867 15.306887 -1.522929
2008-08-04 09:10:02 51°17.822 2°53.965 21.8335 2.25366 15.305071 -1.522929
2008-08-04 09:10:07 51°17.82 2°53.965 21.8343 2.253453 15.302974 -1.522929
2008-08-04 09:10:12 51°17.819 2°53.965 21.8346 2.25335 15.302207 -1.522929
2008-08-04 09:10:17 51°17.817 2°53.965 21.8348 2.25335 15.302207 -1.522929
2008-08-04 09:10:22 51°17.815 2°53.965 21.831 2.253557 15.303741 -1.522929
2008-08-04 09:10:28 51°17.813 2°53.964 21.8324 2.253453 15.302693 -1.522929
2008-08-04 09:10:33 51°17.811 2°53.964 21.8344 2.253453 15.302974 -1.522929
2008-08-04 09:10:37 51°17.81 2°53.964 21.8443 2.25335 15.302207 -1.488105
2008-08-04 09:10:42 51°17.809 2°53.964 21.8393 2.25366 15.305071 -1.488105
2008-08-04 09:10:48 51°17.807 2°53.964 21.8341 2.25366 15.305071 -1.488105
2008-08-04 09:10:52 51°17.805 2°53.964 21.8426 2.253453 15.303256 -1.488105
2008-08-04 09:10:57 51°17.804 2°53.964 21.8472 2.253143 15.300955 -1.522929
2008-08-04 09:11:02 51°17.802 2°53.963 21.8456 2.25304 15.299625 -1.522929
2008-08-04 09:11:07 51°17.8 2°53.963 21.8391 2.253143 15.300392 -1.522929
2008-08-04 09:11:13 51°17.798 2°53.963 21.8484 2.253453 15.302693 -1.522929
2008-08-04 09:11:17 51°17.797 2°53.963 21.8464 2.253453 15.302693 -1.522929
2008-08-04 09:11:22 51°17.796 2°53.963 21.844 2.253453 15.302693 -1.522929
2008-08-04 09:11:27 51°17.794 2°53.962 21.8452 2.253247 15.300596 -1.522929
2008-08-04 09:11:32 51°17.792 2°53.962 21.8492 2.25335 15.3008 -1.522929
2008-08-04 09:11:37 51°17.791 2°53.962 21.8535 2.253143 15.298985 -1.522929
2008-08-04 09:11:42 51°17.79 2°53.962 21.8552 2.253143 15.298141 -1.488105
2008-08-04 09:11:47 51°17.788 2°53.962 21.8519 2.253143 15.298141 -1.488105
2008-08-04 09:11:52 51°17.788 2°53.962 21.8504 2.25335 15.299956 -1.522929
2008-08-04 09:11:57 51°17.788 2°53.962 21.8574 2.253453 15.300723 -1.522929
2008-08-04 09:12:02 51°17.788 2°53.962 21.8576 2.25335 15.299956 -1.522929
2008-08-04 09:12:07 51°17.789 2°53.961 21.8537 2.253453 15.301004 -1.522929
2008-08-04 09:12:12 51°17.79 2°53.961 21.8596 2.25366 15.30282 -1.522929
2008-08-04 09:12:17 51°17.792 2°53.96 21.8576 2.25366 15.30282 -1.522929
2008-08-04 09:12:22 51°17.795 2°53.958 21.86 2.253143 15.298704 -1.522929
2008-08-04 09:12:28 51°17.798 2°53.956 21.8577 2.252937 15.296889 -1.522929
2008-08-04 09:12:33 51°17.802 2°53.953 21.8517 2.252833 15.29584 -1.522929
2008-08-04 09:12:37 51°17.805 2°53.951 21.8552 2.252833 15.29584 -1.488105
2008-08-04 09:12:42 51°17.809 2°53.948 21.8695 2.252833 15.294434 -1.522929
2008-08-04 09:12:47 51°17.813 2°53.944 21.8556 2.252833 15.294434 -1.522929
2008-08-04 09:12:52 51°17.818 2°53.941 21.8525 2.252833 15.292747 -1.522929
2008-08-04 09:12:57 51°17.823 2°53.937 21.8569 2.252833 15.29106 -1.522929
2008-08-04 09:13:02 51°17.828 2°53.933 21.87 2.252936 15.290983 -1.522929
2008-08-04 09:13:07 51°17.834 2°53.929 21.862 2.252936 15.289859 -1.522929
2008-08-04 09:13:13 51°17.84 2°53.925 21.8613 2.25304 15.291469 -1.522929
2008-08-04 09:13:17 51°17.845 2°53.923 21.8586 2.25304 15.291469 -1.522929
2008-08-04 09:13:22 51°17.852 2°53.919 21.8742 2.253143 15.293641 -1.522929
2008-08-04 09:13:27 51°17.858 2°53.916 21.8731 2.253143 15.294203 -1.522929
2008-08-04 09:13:33 51°17.865 2°53.912 21.8708 2.252936 15.290702 -1.522929
2008-08-04 09:13:37 51°17.871 2°53.91 21.8703 2.25304 15.289501 -1.522929
2008-08-04 09:13:42 51°17.877 2°53.907 21.8723 2.253143 15.288301 -1.522929
2008-08-04 09:13:47 51°17.884 2°53.904 21.8735 2.253143 15.288301 -1.522929
2008-08-04 09:13:53 51°17.892 2°53.9 21.873 2.253143 15.287177 -1.522929
2008-08-04 09:13:57 51°17.898 2°53.898 21.8719 2.252936 15.285083 -1.522929
2008-08-04 09:14:02 51°17.905 2°53.895 21.8776 2.253453 15.290319 -1.522929
2008-08-04 09:14:07 51°17.912 2°53.892 21.8727 2.253143 15.289425 -1.522929
2008-08-04 09:14:12 51°17.919 2°53.889 21.8826 2.253246 15.291596 -1.522929
2008-08-04 09:14:17 51°17.926 2°53.886 21.8706 2.253246 15.291596 -1.522929
2008-08-04 09:14:22 51°17.934 2°53.883 21.876 2.253143 15.293641 -1.522929
2008-08-04 09:14:28 51°17.942 2°53.88 21.8835 2.253143 15.295891 -1.522929
2008-08-04 09:14:33 51°17.949 2°53.877 21.8733 2.252937 15.296607 -1.522929
2008-08-04 09:14:37 51°17.955 2°53.875 21.8767 2.253143 15.300111 -1.522929
2008-08-04 09:14:42 51°17.963 2°53.872 21.8776 2.25273 15.296199 -1.522929
2008-08-04 09:14:47 51°17.97 2°53.87 21.884 2.25273 15.296199 -1.522929
2008-08-04 09:14:52 51°17.977 2°53.867 21.8834 2.25273 15.295355 -1.522929
2008-08-04 09:14:57 51°17.985 2°53.864 21.8831 2.25304 15.297937 -1.522929
2008-08-04 09:15:02 51°17.992 2°53.861 21.8882 2.25273 15.295074 -1.522929
2008-08-04 09:15:08 51°18 2°53.858 21.8805 2.25335 15.299675 -1.522929
2008-08-04 09:15:13 51°18.008 2°53.855 21.8834 2.253143 15.298141 -1.488105
2008-08-04 09:15:17 51°18.013 2°53.853 21.8876 2.253143 15.298141 -1.488105
2008-08-04 09:15:22 51°18.02 2°53.85 21.8949 2.252833 15.296122 -1.522929
2008-08-04 09:15:28 51°18.029 2°53.847 21.8899 2.252937 15.296607 -1.522929
2008-08-04 09:15:33 51°18.036 2°53.844 21.8954 2.25273 15.294792 -1.522929
2008-08-04 09:15:37 51°18.042 2°53.841 21.8853 2.252937 15.296326 -1.488105
2008-08-04 09:15:42 51°18.049 2°53.839 21.8839 2.252833 15.295278 -1.522929
2008-08-04 09:15:47 51°18.056 2°53.835 21.884 2.252833 15.295278 -1.522929
2008-08-04 09:15:53 51°18.064 2°53.832 21.885 2.252833 15.294997 -1.488105
2008-08-04 09:15:57 51°18.07 2°53.829 21.8996 2.252937 15.295482 -1.522929
2008-08-04 09:16:02 51°18.077 2°53.826 21.8922 2.252833 15.294434 -1.522929
2008-08-04 09:16:07 51°18.084 2°53.823 21.8932 2.252833 15.294153 -1.522929
2008-08-04 09:16:13 51°18.093 2°53.82 21.902 2.25273 15.293667 -1.522929
2008-08-04 09:16:17 51°18.099 2°53.817 21.8874 2.25273 15.293667 -1.522929
2008-08-04 09:16:22 51°18.106 2°53.814 21.8916 2.252937 15.296607 -1.522929
2008-08-04 09:16:28 51°18.115 2°53.81 21.8968 2.25273 15.295918 -1.488105
2008-08-04 09:16:33 51°18.122 2°53.807 21.8987 2.252833 15.297528 -1.488105
2008-08-04 09:16:37 51°18.127 2°53.805 21.891 2.252937 15.298858 -1.522929
2008-08-04 09:16:42 51°18.135 2°53.802 21.9031 2.25242 15.29418 -1.522929
2008-08-04 09:16:47 51°18.142 2°53.799 21.9095 2.25242 15.29418 -1.522929
2008-08-04 09:16:52 51°18.149 2°53.795 21.9059 2.253143 15.300392 -1.488105
2008-08-04 09:16:57 51°18.156 2°53.793 21.8997 2.252833 15.298091 -1.522929
2008-08-04 09:17:02 51°18.164 2°53.79 21.9089 2.252833 15.297247 -1.522929
2008-08-04 09:17:08 51°18.173 2°53.787 21.9044 2.25242 15.292773 -1.522929
2008-08-04 09:17:13 51°18.18 2°53.784 21.9103 2.252627 15.293744 -1.522929
2008-08-04 09:17:17 51°18.186 2°53.781 21.9081 2.252627 15.293744 -1.522929
2008-08-04 09:17:22 51°18.193 2°53.778 21.9007 2.253143 15.296453 -1.488105
2008-08-04 09:17:28 51°18.201 2°53.775 21.7298 2.25304 15.295124 -1.522929
2008-08-04 09:17:33 51°18.208 2°53.772 20.4995 4.576174 33.492984 -0.93092
2008-08-04 09:17:37 51°18.214 2°53.77 20.2104 4.584481 33.541752 -1.000568
2008-08-04 09:17:42 51°18.222 2°53.767 19.9367 4.513976 32.836322 2.098773
2008-08-04 09:17:48 51°18.23 2°53.763 19.8673 4.513976 32.836322 2.098773
2008-08-04 09:17:53 51°18.238 2°53.76 19.7943 4.349329 31.001244 2.93455
2008-08-04 09:17:57 51°18.243 2°53.757 19.7333 4.414917 30.989099 4.014096
2008-08-04 09:18:02 51°18.251 2°53.754 19.6841 4.369869 30.646024 6.068715
2008-08-04 09:18:07 51°18.258 2°53.751 19.6307 4.437552 31.429877 5.964243
2008-08-04 09:18:12 51°18.265 2°53.749 19.6076 4.603055 32.961278 5.302586
2008-08-04 09:18:17 51°18.273 2°53.746 19.5896 4.603055 32.961278 5.302586
2008-08-04 09:18:22 51°18.28 2°53.742 19.5953 4.667136 33.690181 4.919521
2008-08-04 09:18:28 51°18.288 2°53.739 19.5601 4.656026 33.741221 4.710577
2008-08-04 09:18:33 51°18.296 2°53.736 19.5663 4.667971 33.937117 4.57128
2008-08-04 09:18:37 51°18.302 2°53.734 19.5431 4.689265 34.203145 4.57128
2008-08-04 09:18:42 51°18.309 2°53.731 19.5414 4.724269 34.540536 4.466808
2008-08-04 09:18:47 51°18.316 2°53.728 19.5339 4.724269 34.540536 4.466808
2008-08-04 09:18:52 51°18.323 2°53.726 19.5309 4.720739 34.556308 4.39716
2008-08-04 09:18:57 51°18.33 2°53.724 19.5143 4.722193 34.591307 4.362336
2008-08-04 09:19:02 51°18.337 2°53.721 19.5121 4.724479 34.63062 4.292688
2008-08-04 09:19:08 51°18.345 2°53.718 19.513 4.725622 34.659298 4.327512
2008-08-04 09:19:13 51°18.352 2°53.715 19.5039 4.717416 34.607865 4.327512
2008-08-04 09:19:17 51°18.356 2°53.713 19.4924 4.717416 34.607865 4.327512
2008-08-04 09:19:22 51°18.361 2°53.71 19.4895 4.729258 34.718849 4.292688
2008-08-04 09:19:28 51°18.367 2°53.707 19.4923 4.72583 34.702231 4.257864
2008-08-04 09:19:33 51°18.371 2°53.704 19.4922 4.724896 34.703561 4.362336
2008-08-04 09:19:37 51°18.374 2°53.701 19.4948 4.725727 34.72009 4.257864
2008-08-04 09:19:42 51°18.377 2°53.698 19.476 4.723338 34.707504 4.118568
2008-08-04 09:19:48 51°18.381 2°53.695 19.4837 4.723338 34.707504 4.118568
2008-08-04 09:19:53 51°18.384 2°53.692 19.4695 4.728116 34.754645 4.118568
2008-08-04 09:19:57 51°18.386 2°53.69 19.4626 4.722403 34.714007 4.083744
2008-08-04 09:20:02 51°18.389 2°53.687 19.4704 4.724481 34.735661 4.083744
2008-08-04 09:20:07 51°18.391 2°53.684 19.4803 4.722507 34.721972 4.083744
2008-08-04 09:20:13 51°18.394 2°53.68 19.469 4.71721 34.682165 4.118568
2008-08-04 09:20:17 51°18.395 2°53.679 19.4649 4.71721 34.682165 4.118568
2008-08-04 09:20:22 51°18.397 2°53.676 19.4616 4.720845 34.71473 4.118568
2008-08-04 09:20:28 51°18.399 2°53.673 19.4735 4.717937 34.695912 4.22304
2008-08-04 09:20:33 51°18.401 2°53.67 19.4612 4.700799 34.559106 4.292688
2008-08-04 09:20:37 51°18.402 2°53.669 19.4556 4.686569 34.441832 4.327512
2008-08-04 09:20:42 51°18.404 2°53.667 19.4548 4.707446 34.614559 4.431984
2008-08-04 09:20:47 51°18.405 2°53.665 19.4515 4.707446 34.614559 4.431984
2008-08-04 09:20:52 51°18.406 2°53.663 19.4516 4.716691 34.694678 4.431984
2008-08-04 09:20:57 51°18.407 2°53.661 19.4443 4.718041 34.709698 4.431984
2008-08-04 09:21:02 51°18.408 2°53.66 19.4424 4.716587 34.699639 4.536456
2008-08-04 09:21:08 51°18.409 2°53.658 19.4421 4.688439 34.472003 4.536456
2008-08-04 09:21:13 51°18.41 2°53.656 19.4366 4.718041 34.718754 4.501632
2008-08-04 09:21:17 51°18.41 2°53.655 19.439 4.718041 34.718754 4.501632
2008-08-04 09:21:22 51°18.411 2°53.653 19.4469 4.715445 34.699264 4.536456
2008-08-04 09:21:28 51°18.411 2°53.652 19.4381 4.705889 34.622994 4.536456
2008-08-04 09:21:33 51°18.412 2°53.65 19.4338 4.712017 34.676147 4.536456
2008-08-04 09:21:37 51°18.412 2°53.649 19.4348 4.707655 34.643375 4.57128
2008-08-04 09:21:42 51°18.413 2°53.647 19.4258 4.718249 34.732769 4.57128
2008-08-04 09:21:48 51°18.413 2°53.645 19.4258 4.718249 34.732769 4.57128
2008-08-04 09:21:53 51°18.414 2°53.643 19.4317 4.712537 34.687547 4.57128
2008-08-04 09:21:57 51°18.414 2°53.642 19.4235 4.709836 34.6659 4.501632
2008-08-04 09:22:02 51°18.415 2°53.64 19.4298 4.707862 34.651549 4.501632
2008-08-04 09:22:08 51°18.415 2°53.639 19.4218 4.700903 34.596049 4.501632
2008-08-04 09:22:13 51°18.416 2°53.637 19.4189 4.699138 34.584058 4.536456
2008-08-04 09:22:17 51°18.416 2°53.637 19.4214 4.699138 34.584058 4.536456
2008-08-04 09:22:22 51°18.417 2°53.636 19.4268 4.715964 34.725558 4.57128
2008-08-04 09:22:27 51°18.417 2°53.634 19.4253 4.694671 34.550424 4.606104
2008-08-04 09:22:33 51°18.418 2°53.632 19.4227 4.716484 34.73179 4.466808
2008-08-04 09:22:37 51°18.418 2°53.631 19.4184 4.488232 32.855861 4.536456
2008-08-04 09:22:42 51°18.419 2°53.63 19.4153 4.723963 34.797462 4.57128
2008-08-04 09:22:47 51°18.419 2°53.629 19.4148 4.723963 34.797462 4.57128
2008-08-04 09:22:53 51°18.42 2°53.628 19.4228 4.723236 34.793402 4.57128
2008-08-04 09:22:57 51°18.421 2°53.627 19.4166 4.722716 34.78911 4.536456
2008-08-04 09:23:02 51°18.422 2°53.626 19.4173 4.722716 34.78911 4.919521
2008-08-04 09:23:07 51°18.424 2°53.625 19.4125 4.721366 34.779251 4.501632
2008-08-04 09:23:13 51°18.426 2°53.623 19.4084 4.722924 34.794722 4.431984
2008-08-04 09:23:17 51°18.427 2°53.622 19.407 4.722924 34.794722 4.431984
2008-08-04 09:23:22 51°18.429 2°53.62 19.404 4.722612 34.793446 4.362336
2008-08-04 09:23:28 51°18.432 2°53.618 19.4068 4.720327 34.774563 4.327512
2008-08-04 09:23:32 51°18.435 2°53.617 19.4034 4.721885 34.788087 4.431984
2008-08-04 09:23:37 51°18.438 2°53.615 19.4036 4.721054 34.781869 4.327512
2008-08-04 09:23:42 51°18.441 2°53.614 19.4053 4.721158 34.785324 4.39716
2008-08-04 09:23:47 51°18.445 2°53.612 19.4059 4.721158 34.785324 4.39716
2008-08-04 09:23:53 51°18.449 2°53.611 19.4066 4.720847 34.784697 4.39716
2008-08-04 09:23:57 51°18.452 2°53.61 19.4039 4.719912 34.779568 4.431984
2008-08-04 09:24:02 51°18.456 2°53.609 19.4056 4.721885 34.797179 4.431984
2008-08-04 09:24:08 51°18.461 2°53.607 19.4076 4.721262 34.792677 4.501632
2008-08-04 09:24:13 51°18.465 2°53.606 19.4028 4.721886 34.798478 4.431984
2008-08-04 09:24:17 51°18.468 2°53.604 19.3966 4.721886 34.798478 4.431984
2008-08-04 09:24:22 51°18.473 2°53.603 19.3955 4.720847 34.790541 4.466808
2008-08-04 09:24:28 51°18.478 2°53.601 19.3974 4.721055 34.791609 4.431984
2008-08-04 09:24:33 51°18.483 2°53.6 19.4002 4.722405 34.803421 4.431984
2008-08-04 09:24:37 51°18.486 2°53.599 19.3953 4.721886 34.798478 4.362336
2008-08-04 09:24:42 51°18.491 2°53.598 19.3988 4.721158 34.792468 4.292688
2008-08-04 09:24:47 51°18.496 2°53.596 19.3982 4.721158 34.792468 4.292688
2008-08-04 09:24:53 51°18.502 2°53.594 19.3959 4.720327 34.788197 4.22304
2008-08-04 09:24:57 51°18.506 2°53.593 19.3964 4.721574 34.7998 4.22304
2008-08-04 09:25:02 51°18.51 2°53.592 19.3947 4.721989 34.804535 4.188216
2008-08-04 09:25:07 51°18.515 2°53.591 19.3967 4.72147 34.800891 4.083744
2008-08-04 09:25:12 51°18.52 2°53.589 19.3975 4.720535 34.793812 4.04892
2008-08-04 09:25:17 51°18.525 2°53.588 19.3993 4.720535 34.793812 4.04892
2008-08-04 09:25:22 51°18.531 2°53.586 19.3988 4.721055 34.798106 4.014096
2008-08-04 09:25:27 51°18.535 2°53.585 19.3987 4.72199 34.805835 3.979271
2008-08-04 09:25:32 51°18.538 2°53.583 19.4036 4.719704 34.787592 3.944447
2008-08-04 09:25:37 51°18.54 2°53.582 19.3992 4.720951 34.797897 3.909623
2008-08-04 09:25:42 51°18.542 2°53.58 19.3967 4.720639 34.795321 3.839975
2008-08-04 09:25:47 51°18.542 2°53.579 19.3999 4.720639 34.795321 3.839975
2008-08-04 09:25:52 51°18.542 2°53.578 19.4039 4.722197 34.807552 3.770327
2008-08-04 09:25:57 51°18.541 2°53.578 19.397 4.722093 34.806044 3.770327
2008-08-04 09:26:02 51°18.54 2°53.577 19.3954 4.718977 34.780282 3.735503
2008-08-04 09:26:08 51°18.539 2°53.577 19.3965 4.720224 34.789287 3.700679
2008-08-04 09:26:13 51°18.537 2°53.576 19.396 4.721678 34.802609 3.700679
2008-08-04 09:26:17 51°18.536 2°53.576 19.3927 4.721678 34.802609 3.700679
2008-08-04 09:26:22 51°18.534 2°53.576 19.3951 4.720639 34.794021 3.665855
2008-08-04 09:26:28 51°18.533 2°53.576 19.3992 4.720016 34.788869 3.665855
2008-08-04 09:26:32 51°18.531 2°53.575 19.3985 4.719912 34.78866 3.700679
2008-08-04 09:26:37 51°18.529 2°53.575 19.4009 4.720535 34.794462 3.735503
2008-08-04 09:26:42 51°18.528 2°53.575 19.3943 4.718873 34.780722 3.805151
2008-08-04 09:26:48 51°18.525 2°53.575 19.3944 4.718873 34.780722 3.805151
2008-08-04 09:26:53 51°18.524 2°53.574 19.3938 4.720535 34.795112 3.770327
2008-08-04 09:26:57 51°18.522 2°53.574 19.3979 4.718562 34.779445 3.839975
2008-08-04 09:27:02 51°18.52 2°53.574 19.3995 4.7196 34.786733 3.805151
2008-08-04 09:27:07 51°18.518 2°53.574 19.4037 4.720743 34.79553 3.909623
2008-08-04 09:27:13 51°18.516 2°53.574 19.4015 4.716796 34.764847 3.909623
2008-08-04 09:27:19 51°18.514 2°53.573 19.3948 4.716796 34.764847 3.909623
2008-08-04 09:27:25 51°18.512 2°53.573 19.3934 4.720951 34.799847 3.944447
2008-08-04 09:27:30 51°18.51 2°53.573 19.3937 4.719601 34.788682 4.014096
2008-08-04 09:27:36 51°18.508 2°53.573 19.3927 4.718977 34.78288 4.014096
2008-08-04 09:27:41 51°18.506 2°53.572 19.389 4.717939 34.772345 4.014096
2008-08-04 09:27:46 51°18.505 2°53.572 19.392 4.720951 34.796597 4.083744
2008-08-04 09:27:51 51°18.503 2°53.571 19.3929 4.720951 34.796597 4.083744
2008-08-04 09:27:56 51°18.501 2°53.571 19.3929 4.721366 34.800682 4.083744
2008-08-04 09:28:01 51°18.5 2°53.57 19.3899 4.721678 34.805208 4.118568
2008-08-04 09:28:06 51°18.499 2°53.57 19.3886 4.721366 34.803282 4.153392
2008-08-04 09:28:10 51°18.499 2°53.57 19.392 4.721574 34.80565 4.188216
2008-08-04 09:28:15 51°18.499 2°53.569 19.3912 4.721159 34.804164 4.22304
2008-08-04 09:28:20 51°18.499 2°53.568 19.3923 4.721159 34.804164 4.22304
2008-08-04 09:28:25 51°18.5 2°53.568 19.3917 4.720224 34.797084 4.188216
2008-08-04 09:28:30 51°18.5 2°53.567 19.3907 4.721159 34.804164 4.257864
2008-08-04 09:28:35 51°18.5 2°53.567 19.3919 4.720743 34.802029 4.188216
2008-08-04 09:28:40 51°18.5 2°53.566 19.3919 4.72199 34.812986 4.257864
2008-08-04 09:28:45 51°18.501 2°53.565 19.3943 4.718977 34.788077 4.22304
2008-08-04 09:28:50 51°18.501 2°53.564 19.3953 4.718977 34.788077 4.22304
2008-08-04 09:28:55 51°18.501 2°53.564 19.3926 4.719704 34.79344 4.257864
2008-08-04 09:29:00 51°18.501 2°53.563 19.3936 4.721366 34.807182 4.22304
2008-08-04 09:29:05 51°18.501 2°53.562 19.3919 4.72012 34.796875 4.22304
2008-08-04 09:29:09 51°18.501 2°53.562 19.3924 4.72147 34.808041 4.188216
2008-08-04 09:29:14 51°18.501 2°53.561 19.3932 4.722093 34.812544 4.118568
2008-08-04 09:29:19 51°18.501 2°53.561 19.3941 4.722093 34.812544 4.118568
2008-08-04 09:29:24 51°18.501 2°53.56 19.3935 4.720743 34.800079 3.979271
2008-08-04 09:29:29 51°18.501 2°53.56 19.3941 4.721159 34.804164 4.014096
2008-08-04 09:29:34 51°18.501 2°53.559 19.3947 4.722509 34.81468 4.014096
2008-08-04 09:29:39 51°18.501 2°53.559 19.3936 4.722197 34.812753 4.014096
2008-08-04 09:29:44 51°18.501 2°53.558 19.3894 4.722509 34.81533 4.014096
2008-08-04 09:29:49 51°18.501 2°53.558 19.391 4.722509 34.81533 4.014096
2008-08-04 09:29:53 51°18.501 2°53.557 19.3931 4.721366 34.805882 4.014096
2008-08-04 09:29:59 51°18.501 2°53.557 19.3929 4.722613 34.816189 4.014096
2008-08-04 09:30:03 51°18.501 2°53.556 19.395 4.723028 34.819625 4.04892
2008-08-04 09:30:09 51°18.501 2°53.556 19.3946 4.722197 34.812753 4.014096
2008-08-04 09:30:13 51°18.502 2°53.556 19.3958 4.720951 34.803096 4.014096
2008-08-04 09:30:18 51°18.502 2°53.555 19.3906 4.720951 34.803096 4.014096
2008-08-04 09:30:23 51°18.502 2°53.554 19.3932 4.722197 34.813403 3.979271
2008-08-04 09:30:28 51°18.502 2°53.554 19.3955 4.721886 34.810827 3.944447
2008-08-04 09:30:33 51°18.502 2°53.553 19.3921 4.721574 34.80825 3.874799
2008-08-04 09:30:38 51°18.502 2°53.553 19.3949 4.722093 34.811244 3.874799
2008-08-04 09:30:43 51°18.503 2°53.553 19.393 4.72147 34.805441 3.874799
2008-08-04 09:30:48 51°18.503 2°53.553 19.3924 4.72147 34.805441 3.874799
2008-08-04 09:30:53 51°18.503 2°53.552 19.3917 4.72147 34.806741 3.805151
2008-08-04 09:30:57 51°18.503 2°53.553 19.393 4.720743 34.800729 3.805151
2008-08-04 09:31:02 51°18.503 2°53.552 19.3929 4.722405 34.814471 3.770327
2008-08-04 09:31:08 51°18.503 2°53.551 19.3926 4.718458 34.781834 3.770327
2008-08-04 09:31:13 51°18.503 2°53.551 19.3911 4.722613 34.816189 3.805151
2008-08-04 09:31:17 51°18.503 2°53.55 19.3911 4.722613 34.816189 3.805151
2008-08-04 09:31:22 51°18.504 2°53.55 19.3912 4.722821 34.817907 3.805151
2008-08-04 09:31:27 51°18.504 2°53.55 19.3904 4.721886 34.810176 3.874799
2008-08-04 09:31:33 51°18.504 2°53.549 19.3951 4.722301 34.813612 3.770327
2008-08-04 09:31:37 51°18.504 2°53.549 19.3959 4.722924 34.818766 3.839975
2008-08-04 09:31:42 51°18.504 2°53.549 19.3914 4.722924 34.818766 3.839975
2008-08-04 09:31:47 51°18.504 2°53.548 19.3914 4.722924 34.818766 3.839975
2008-08-04 09:31:52 51°18.504 2°53.548 19.3917 4.723132 34.821134 3.839975
2008-08-04 09:31:57 51°18.504 2°53.548 19.3889 4.723028 34.820925 3.839975
2008-08-04 09:32:02 51°18.504 2°53.547 19.3922 4.723028 34.820925 3.839975
2008-08-04 09:32:07 51°18.505 2°53.547 19.3908 4.722924 34.819416 3.805151
2008-08-04 09:32:12 51°18.505 2°53.547 19.3904 4.722405 34.815121 3.874799
2008-08-04 09:32:17 51°18.505 2°53.547 19.3933 4.722405 34.815121 3.874799
2008-08-04 09:32:22 51°18.505 2°53.546 19.3891 4.723132 34.821784 3.909623
2008-08-04 09:32:28 51°18.505 2°53.546 19.3929 4.722924 34.820066 3.874799
2008-08-04 09:32:33 51°18.506 2°53.545 19.3914 4.722613 34.81814 4.014096
2008-08-04 09:32:37 51°18.506 2°53.545 19.3947 4.723028 34.821576 4.04892
2008-08-04 09:32:42 51°18.506 2°53.544 19.3903 4.722094 34.813845 4.014096
2008-08-04 09:32:47 51°18.506 2°53.544 19.3935 4.722094 34.813845 4.014096
2008-08-04 09:32:52 51°18.507 2°53.544 19.3917 4.723236 34.823294 4.04892
2008-08-04 09:32:57 51°18.507 2°53.543 19.3915 4.723236 34.823294 4.014096
2008-08-04 09:33:02 51°18.507 2°53.543 19.39 4.723132 34.821784 4.014096
2008-08-04 09:33:08 51°18.508 2°53.542 19.393 4.722924 34.819416 3.979271
2008-08-04 09:33:13 51°18.508 2°53.542 19.3924 4.723132 34.820484 3.909623
2008-08-04 09:33:17 51°18.508 2°53.541 19.3897 4.723132 34.820484 3.909623
2008-08-04 09:33:22 51°18.509 2°53.541 19.3893 4.722924 34.818766 3.805151
2008-08-04 09:33:28 51°18.509 2°53.541 19.3914 4.723028 34.819625 3.839975
2008-08-04 09:33:33 51°18.509 2°53.54 19.3922 4.722197 34.812753 3.874799
2008-08-04 09:33:37 51°18.51 2°53.54 19.3919 4.722613 34.816839 3.874799
2008-08-04 09:33:42 51°18.51 2°53.54 19.3914 4.722821 34.818557 3.874799
2008-08-04 09:33:48 51°18.51 2°53.539 19.3935 4.722821 34.818557 3.874799
2008-08-04 09:33:53 51°18.511 2°53.539 19.3964 4.722717 34.818349 3.874799
2008-08-04 09:33:57 51°18.511 2°53.539 19.3933 4.723028 34.821576 3.874799
2008-08-04 09:34:02 51°18.511 2°53.539 19.3909 4.722717 34.818349 3.874799
2008-08-04 09:34:07 51°18.511 2°53.538 19.3912 4.722613 34.81749 3.874799
2008-08-04 09:34:13 51°18.512 2°53.538 19.3924 4.722821 34.819207 3.909623
2008-08-04 09:34:17 51°18.512 2°53.538 19.3905 4.722821 34.819207 3.909623
2008-08-04 09:34:22 51°18.512 2°53.537 19.3924 4.722613 34.816189 3.909623
2008-08-04 09:34:28 51°18.512 2°53.537 19.3923 4.722405 34.813821 3.979271
2008-08-04 09:34:33 51°18.512 2°53.537 19.3938 4.722717 34.815747 3.979271
2008-08-04 09:34:37 51°18.513 2°53.537 19.3905 4.723028 34.819625 4.04892
2008-08-04 09:34:42 51°18.513 2°53.537 19.3929 4.723028 34.819625 4.153392
2008-08-04 09:34:47 51°18.513 2°53.537 19.3902 4.723028 34.819625 4.153392
2008-08-04 09:34:52 51°18.513 2°53.537 19.3922 4.723028 34.819625 4.188216
2008-08-04 09:34:57 51°18.513 2°53.536 19.3899 4.723028 34.819625 4.153392
2008-08-04 09:35:02 51°18.513 2°53.536 19.3918 4.723132 34.820484 4.153392
2008-08-04 09:35:08 51°18.513 2°53.536 19.3923 4.723236 34.821343 4.153392
2008-08-04 09:35:13 51°18.513 2°53.536 19.392 4.723236 34.821993 4.118568
2008-08-04 09:35:17 51°18.513 2°53.536 19.394 4.723236 34.821993 4.118568
2008-08-04 09:35:22 51°18.513 2°53.536 19.3903 4.72334 34.823502 4.153392
2008-08-04 09:35:28 51°18.513 2°53.536 19.3905 4.72334 34.823502 4.153392
2008-08-04 09:35:33 51°18.513 2°53.535 19.3957 4.72334 34.823502 4.153392
2008-08-04 09:35:37 51°18.513 2°53.535 19.3922 4.72334 34.823502 4.118568
2008-08-04 09:35:42 51°18.513 2°53.535 19.394 4.723236 34.821993 4.014096
2008-08-04 09:35:48 51°18.513 2°53.535 19.3954 4.723236 34.821993 4.014096
2008-08-04 09:35:53 51°18.513 2°53.535 19.3949 4.723236 34.821343 3.909623
2008-08-04 09:35:57 51°18.513 2°53.535 19.3943 4.72334 34.822202 3.874799
2008-08-04 09:36:02 51°18.513 2°53.535 19.3939 4.72334 34.822202 3.874799
2008-08-04 09:36:07 51°18.513 2°53.535 19.3944 4.723444 34.823061 3.909623
2008-08-04 09:36:13 51°18.513 2°53.535 19.394 4.723548 34.823269 3.874799
2008-08-04 09:36:17 51°18.513 2°53.535 19.3954 4.723548 34.823269 3.874799
2008-08-04 09:36:22 51°18.512 2°53.535 19.3963 4.723548 34.822619 3.944447
2008-08-04 09:36:28 51°18.511 2°53.535 19.3993 4.723548 34.822619 3.979271
2008-08-04 09:36:33 51°18.511 2°53.535 19.3969 4.723548 34.822619 3.944447
2008-08-04 09:36:37 51°18.511 2°53.535 19.393 4.72334 34.820251 3.909623
2008-08-04 09:36:42 51°18.511 2°53.535 19.3928 4.723444 34.821109 3.944447
2008-08-04 09:36:47 51°18.511 2°53.535 19.3944 4.723444 34.821109 3.944447
2008-08-04 09:36:52 51°18.51 2°53.535 19.3966 4.723444 34.820459 3.909623
2008-08-04 09:36:57 51°18.51 2°53.535 19.3945 4.723548 34.820668 3.909623
2008-08-04 09:37:02 51°18.51 2°53.534 19.3945 4.723548 34.820668 3.944447
2008-08-04 09:37:08 51°18.51 2°53.535 19.3923 4.723548 34.820668 3.979271
2008-08-04 09:37:13 51°18.51 2°53.535 19.3919 4.723652 34.822177 3.979271
2008-08-04 09:37:17 51°18.511 2°53.535 19.3924 4.723652 34.822177 3.979271
2008-08-04 09:37:22 51°18.511 2°53.535 19.3929 4.723652 34.822827 4.014096
2008-08-04 09:37:28 51°18.511 2°53.535 19.3927 4.723548 34.821968 4.118568
2008-08-04 09:37:33 51°18.511 2°53.535 19.3956 4.723444 34.821109 4.014096
2008-08-04 09:37:37 51°18.511 2°53.535 19.3931 4.723548 34.822619 4.04892
2008-08-04 09:37:42 51°18.511 2°53.535 19.3918 4.723548 34.823269 4.118568
2008-08-04 09:37:48 51°18.512 2°53.534 19.3932 4.723548 34.823269 4.118568
2008-08-04 09:37:53 51°18.512 2°53.534 19.3953 4.723548 34.823269 4.118568
2008-08-04 09:37:57 51°18.512 2°53.534 19.3931 4.723548 34.823269 4.04892
2008-08-04 09:38:02 51°18.512 2°53.534 19.3939 4.723548 34.822619 4.014096
2008-08-04 09:38:08 51°18.512 2°53.534 19.3925 4.723444 34.82176 4.083744
2008-08-04 09:38:13 51°18.512 2°53.533 19.392 4.723444 34.82241 4.083744
2008-08-04 09:38:17 51°18.512 2°53.533 19.3927 4.723444 34.82241 4.083744
2008-08-04 09:38:22 51°18.512 2°53.533 19.3941 4.72334 34.821551 4.04892
2008-08-04 09:38:28 51°18.512 2°53.533 19.3949 4.723236 34.820692 4.04892
2008-08-04 09:38:33 51°18.512 2°53.533 19.3925 4.723236 34.820692 4.083744
2008-08-04 09:38:37 51°18.512 2°53.533 19.3942 4.72334 34.821551 4.014096
2008-08-04 09:38:42 51°18.512 2°53.533 19.394 4.723548 34.823269 3.979271
2008-08-04 09:38:47 51°18.512 2°53.533 19.3937 4.723548 34.823269 3.979271
2008-08-04 09:38:53 51°18.512 2°53.533 19.3933 4.723548 34.823269 3.909623
2008-08-04 09:38:57 51°18.513 2°53.533 19.3946 4.723548 34.822619 3.805151
2008-08-04 09:39:02 51°18.513 2°53.533 19.3954 4.723548 34.822619 3.839975
2008-08-04 09:39:08 51°18.513 2°53.533 19.3944 4.723652 34.823478 3.839975
2008-08-04 09:39:13 51°18.513 2°53.533 19.3978 4.723548 34.822619 3.909623
2008-08-04 09:39:17 51°18.513 2°53.533 19.3941 4.723548 34.822619 3.909623
2008-08-04 09:39:22 51°18.513 2°53.533 19.3941 4.723548 34.822619 3.944447
2008-08-04 09:39:28 51°18.513 2°53.533 19.3945 4.723548 34.822619 3.909623
2008-08-04 09:39:32 51°18.513 2°53.533 19.3945 4.723444 34.821109 4.083744
2008-08-04 09:39:37 51°18.513 2°53.533 19.3958 4.723548 34.821968 3.979271
2008-08-04 09:39:42 51°18.513 2°53.533 19.396 4.723652 34.822177 3.979271
2008-08-04 09:39:48 51°18.513 2°53.533 19.3945 4.723652 34.822177 3.979271
2008-08-04 09:39:53 51°18.513 2°53.533 19.395 4.723755 34.823036 4.04892
2008-08-04 09:39:57 51°18.513 2°53.533 19.3942 4.723755 34.823686 4.04892
2008-08-04 09:40:02 51°18.513 2°53.533 19.3944 4.723755 34.823686 4.04892
2008-08-04 09:40:08 51°18.513 2°53.533 19.3969 4.723859 34.824545 4.083744
2008-08-04 09:40:13 51°18.513 2°53.533 19.395 4.723963 34.825404 4.118568
2008-08-04 09:40:17 51°18.513 2°53.533 19.3949 4.723963 34.825404 4.118568
2008-08-04 09:40:22 51°18.513 2°53.533 19.3961 4.723859 34.824545 4.22304
2008-08-04 09:40:28 51°18.513 2°53.533 19.3976 4.723859 34.824545 4.188216
2008-08-04 09:40:33 51°18.513 2°53.533 19.3976 4.723963 34.825404 4.257864
2008-08-04 09:40:37 51°18.513 2°53.533 19.3967 4.723963 34.824754 4.292688
2008-08-04 09:40:42 51°18.513 2°53.533 19.3967 4.724171 34.826472 4.22304
2008-08-04 09:40:47 51°18.512 2°53.533 19.3956 4.724171 34.826472 4.22304
2008-08-04 09:40:53 51°18.513 2°53.533 19.3954 4.724171 34.826472 4.188216
2008-08-04 09:40:57 51°18.512 2°53.532 19.3959 4.724171 34.825821 4.118568
2008-08-04 09:41:02 51°18.512 2°53.532 19.3973 4.724067 34.824312 4.188216
2008-08-04 09:41:07 51°18.512 2°53.532 19.3966 4.723963 34.823453 4.22304
2008-08-04 09:41:13 51°18.512 2°53.532 19.3962 4.724067 34.824312 4.188216
2008-08-04 09:41:17 51°18.512 2°53.532 19.3965 4.724067 34.824312 4.188216
2008-08-04 09:41:22 51°18.512 2°53.532 19.3968 4.724171 34.825171 4.188216
2008-08-04 09:41:28 51°18.513 2°53.532 19.3966 4.724171 34.825821 4.22304
2008-08-04 09:41:32 51°18.512 2°53.532 19.3944 4.724275 34.82668 4.153392
2008-08-04 09:41:37 51°18.513 2°53.532 19.3949 4.724171 34.825821 4.014096
2008-08-04 09:41:42 51°18.513 2°53.532 19.3928 4.724171 34.825821 4.118568
2008-08-04 09:41:47 51°18.513 2°53.532 19.393 4.724171 34.825821 4.118568
2008-08-04 09:41:53 51°18.513 2°53.532 19.3938 4.724067 34.824962 4.118568
2008-08-04 09:41:57 51°18.513 2°53.531 19.394 4.724067 34.824962 4.083744
2008-08-04 09:42:02 51°18.513 2°53.531 19.3918 4.724067 34.825613 4.153392
2008-08-04 09:42:08 51°18.513 2°53.531 19.394 4.724067 34.825613 4.153392
2008-08-04 09:42:13 51°18.513 2°53.531 19.3962 4.724067 34.825613 4.188216
2008-08-04 09:42:17 51°18.513 2°53.532 19.3946 4.724067 34.825613 4.188216
2008-08-04 09:42:22 51°18.513 2°53.532 19.3928 4.724067 34.826263 4.153392
2008-08-04 09:42:28 51°18.513 2°53.532 19.3953 4.723859 34.824545 4.188216
2008-08-04 09:42:33 51°18.513 2°53.532 19.3939 4.723859 34.825196 4.153392
2008-08-04 09:42:37 51°18.513 2°53.531 19.395 4.723859 34.825196 4.153392
2008-08-04 09:42:42 51°18.513 2°53.532 19.394 4.723859 34.824545 4.153392
2008-08-04 09:42:48 51°18.513 2°53.531 19.3945 4.723859 34.824545 4.153392
2008-08-04 09:42:53 51°18.513 2°53.532 19.3933 4.723859 34.824545 4.153392
2008-08-04 09:42:57 51°18.513 2°53.531 19.3938 4.724067 34.826913 4.153392
2008-08-04 09:43:02 51°18.513 2°53.531 19.3954 4.724067 34.826263 4.188216
2008-08-04 09:43:07 51°18.513 2°53.531 19.395 4.724067 34.826263 4.153392
2008-08-04 09:43:13 51°18.513 2°53.531 19.3957 4.724171 34.827122 4.153392
2008-08-04 09:43:17 51°18.513 2°53.531 19.3959 4.724171 34.827122 4.153392
2008-08-04 09:43:22 51°18.513 2°53.532 19.397 4.724171 34.827122 4.188216
2008-08-04 09:43:27 51°18.513 2°53.531 19.3941 4.724171 34.827772 4.257864
2008-08-04 09:43:32 51°18.513 2°53.532 19.3953 4.724171 34.827122 4.118568
2008-08-04 09:43:37 51°18.513 2°53.531 19.3962 4.724171 34.827122 4.118568
2008-08-04 09:43:42 51°18.513 2°53.532 19.397 4.724067 34.826263 4.257864
2008-08-04 09:43:47 51°18.513 2°53.532 19.397 4.724067 34.826263 4.257864
2008-08-04 09:43:52 51°18.513 2°53.532 19.3969 4.723963 34.825404 4.22304
2008-08-04 09:43:58 51°18.513 2°53.531 19.3964 4.723963 34.824754 4.188216
2008-08-04 09:44:02 51°18.513 2°53.532 19.3964 4.724067 34.826263 4.22304
2008-08-04 09:44:08 51°18.513 2°53.531 19.3967 4.724067 34.826263 4.188216
2008-08-04 09:44:13 51°18.513 2°53.531 19.3969 4.724067 34.825613 4.153392
2008-08-04 09:44:17 51°18.513 2°53.531 19.3958 4.724067 34.825613 4.153392
2008-08-04 09:44:22 51°18.513 2°53.531 19.395 4.724067 34.824962 4.04892
2008-08-04 09:44:28 51°18.513 2°53.531 19.3959 4.720431 34.794903 4.014096
2008-08-04 09:44:32 51°18.513 2°53.531 19.3947 4.724171 34.825821 4.083744
2008-08-04 09:44:37 51°18.513 2°53.531 19.3969 4.724275 34.82668 4.118568
2008-08-04 09:44:42 51°18.514 2°53.531 19.3976 4.724275 34.82668 4.153392
2008-08-04 09:44:48 51°18.514 2°53.531 19.3969 4.724275 34.82668 4.153392
2008-08-04 09:44:53 51°18.514 2°53.531 19.3957 4.724171 34.825821 4.04892
2008-08-04 09:44:57 51°18.514 2°53.531 19.3955 4.724171 34.825821 4.083744
2008-08-04 09:45:02 51°18.514 2°53.531 19.3954 4.724171 34.825821 4.014096
2008-08-04 09:45:08 51°18.514 2°53.531 19.3972 4.724171 34.825821 4.014096
2008-08-04 09:45:13 51°18.514 2°53.531 19.3953 4.724171 34.825821 4.014096
2008-08-04 09:45:17 51°18.514 2°53.531 19.3955 4.724171 34.825821 4.014096
2008-08-04 09:45:22 51°18.513 2°53.531 19.394 4.724275 34.82603 4.014096
2008-08-04 09:45:27 51°18.513 2°53.531 19.3945 4.724275 34.82668 4.083744
2008-08-04 09:45:33 51°18.513 2°53.531 19.3955 4.724275 34.82668 4.083744
2008-08-04 09:45:37 51°18.513 2°53.53 19.3948 4.724275 34.82733 4.153392